Time,TemperatureF,DewpointF,PressureIn,WindDirection,WindDirectionDegrees,WindSpeedMPH,WindSpeedGustMPH,Humidity,HourlyPrecipIn,Conditions,Clouds,dailyrainin,SoftwareType,DateUTC
2013-03-11 00:02:00,67.1,57.8,30.03,ESE,112,0.0,0.0,72,0.00,,---,0.00,VWS V14.01,2013-03-10 22:02:00,
2013-03-11 00:06:00,67.1,58.9,30.03,East,90,3.6,3.6,75,0.00,,---,0.00,VWS V14.01,2013-03-10 22:06:00,
2013-03-11 00:07:00,67.1,59.3,30.03,East,90,5.8,8.1,76,0.00,,---,0.00,VWS V14.01,2013-03-10 22:07:00,
2013-03-11 00:08:00,67.1,59.3,30.03,ESE,112,4.9,6.3,76,0.00,,---,0.00,VWS V14.01,2013-03-10 22:08:00,
2013-03-11 00:11:00,67.1,59.3,30.03,East,90,5.8,5.8,76,0.00,,---,0.00,VWS V14.01,2013-03-10 22:11:00,
2013-03-11 00:13:00,67.1,59.3,30.03,SSE,158,4.0,6.3,76,0.00,,---,0.00,VWS V14.01,2013-03-10 22:13:00,
2013-03-11 00:16:00,67.1,59.3,30.03,ESE,112,2.9,7.6,76,0.00,,---,0.00,VWS V14.01,2013-03-10 22:16:00,
2013-03-11 00:19:00,67.1,59.7,30.03,ESE,112,0.0,0.0,77,0.00,,---,0.00,VWS V14.01,2013-03-10 22:19:00,
2013-03-11 00:21:00,67.1,59.7,30.03,ESE,112,0.0,7.2,77,0.00,,---,0.00,VWS V14.01,2013-03-10 22:21:00,
2013-03-11 00:22:00,66.9,59.1,30.03,ESE,112,0.0,0.0,76,0.00,,---,0.00,VWS V14.01,2013-03-10 22:22:00,
2013-03-11 00:25:00,66.9,58.8,30.03,East,90,0.0,0.0,75,0.00,,---,0.00,VWS V14.01,2013-03-10 22:25:00,
2013-03-11 00:27:00,66.9,58.8,30.03,East,90,0.0,0.0,75,0.00,,---,0.00,VWS V14.01,2013-03-10 22:27:00,
2013-03-11 00:30:00,66.9,58.8,30.03,ESE,112,0.0,0.0,75,0.00,,---,0.00,VWS V14.01,2013-03-10 22:30:00,
2013-03-11 00:31:00,67.1,59.3,30.03,ESE,112,0.0,0.0,76,0.00,,---,0.00,VWS V14.01,2013-03-10 22:31:00,
2013-03-11 00:33:00,67.1,59.3,30.03,ESE,112,0.0,0.0,76,0.00,,---,0.00,VWS V14.01,2013-03-10 22:33:00,
2013-03-11 00:35:00,67.1,60.0,30.03,ESE,112,0.0,0.0,78,0.00,,---,0.00,VWS V14.01,2013-03-10 22:35:00,
2013-03-11 00:36:00,67.1,60.0,30.03,ESE,112,0.0,0.0,78,0.00,,---,0.00,VWS V14.01,2013-03-10 22:36:00,
2013-03-11 00:41:00,66.9,59.5,30.03,ESE,112,0.0,0.0,77,0.00,,---,0.00,VWS V14.01,2013-03-10 22:41:00,
2013-03-11 00:42:00,66.9,59.5,30.03,East,90,0.0,0.0,77,0.00,,---,0.00,VWS V14.01,2013-03-10 22:42:00,
2013-03-11 00:43:00,66.9,59.5,30.03,ESE,112,0.0,0.0,77,0.00,,---,0.00,VWS V14.01,2013-03-10 22:43:00,
2013-03-11 00:48:00,66.9,59.5,30.03,ESE,112,0.0,0.0,77,0.00,,---,0.00,VWS V14.01,2013-03-10 22:48:00,
2013-03-11 00:49:00,66.9,59.5,30.03,ESE,112,0.0,0.0,77,0.00,,---,0.00,VWS V14.01,2013-03-10 22:49:00,
2013-03-11 00:50:00,66.9,59.5,30.03,ESE,112,0.0,0.0,77,0.00,,---,0.00,VWS V14.01,2013-03-10 22:50:00,
2013-03-11 00:55:00,67.1,60.4,30.03,East,90,0.0,0.0,79,0.00,,---,0.00,VWS V14.01,2013-03-10 22:55:00,
2013-03-11 00:57:00,67.1,60.7,30.03,ESE,112,0.0,0.0,80,0.00,,---,0.00,VWS V14.01,2013-03-10 22:57:00,
2013-03-11 01:01:00,66.9,59.5,30.03,ESE,112,0.0,0.0,77,0.00,,---,0.00,VWS V14.01,2013-03-10 23:01:00,
2013-03-11 01:03:00,66.9,59.5,30.03,South,180,0.0,0.0,77,0.00,,---,0.00,VWS V14.01,2013-03-10 23:03:00,
2013-03-11 01:06:00,66.7,59.3,30.03,East,90,0.0,0.0,77,0.00,,---,0.00,VWS V14.01,2013-03-10 23:06:00,
2013-03-11 01:07:00,66.7,59.3,30.03,ENE,68,0.0,0.0,77,0.00,,---,0.00,VWS V14.01,2013-03-10 23:07:00,
2013-03-11 01:10:00,66.9,59.8,30.03,East,90,0.0,0.0,78,0.00,,---,0.00,VWS V14.01,2013-03-10 23:10:00,
2013-03-11 01:13:00,66.7,59.7,30.03,East,90,0.0,0.0,78,0.00,,---,0.00,VWS V14.01,2013-03-10 23:13:00,
2013-03-11 01:15:00,66.7,59.7,30.03,East,90,0.0,0.0,78,0.00,,---,0.00,VWS V14.01,2013-03-10 23:15:00,
2013-03-11 01:19:00,66.7,59.7,30.03,ESE,112,0.0,0.0,78,0.00,,---,0.00,VWS V14.01,2013-03-10 23:19:00,
2013-03-11 01:20:00,66.7,59.7,30.03,East,90,0.0,0.0,78,0.00,,---,0.00,VWS V14.01,2013-03-10 23:20:00,
2013-03-11 01:22:00,66.7,59.7,30.03,ESE,112,0.0,0.0,78,0.00,,---,0.00,VWS V14.01,2013-03-10 23:22:00,
2013-03-11 01:24:00,66.7,60.0,30.03,East,90,0.0,0.0,79,0.00,,---,0.00,VWS V14.01,2013-03-10 23:24:00,
2013-03-11 01:25:00,66.9,60.2,30.03,ESE,112,0.0,0.0,79,0.00,,---,0.00,VWS V14.01,2013-03-10 23:25:00,
2013-03-11 01:27:00,66.9,60.2,30.03,ESE,112,0.0,0.0,79,0.00,,---,0.00,VWS V14.01,2013-03-10 23:27:00,
2013-03-11 01:30:00,66.7,60.0,30.03,ESE,112,0.0,0.0,79,0.00,,---,0.00,VWS V14.01,2013-03-10 23:30:00,
2013-03-11 01:31:00,66.7,60.0,30.03,ESE,112,0.0,0.0,79,0.00,,---,0.00,VWS V14.01,2013-03-10 23:31:00,
2013-03-11 01:34:00,66.7,60.0,30.03,East,90,0.0,0.0,79,0.00,,---,0.00,VWS V14.01,2013-03-10 23:34:00,
2013-03-11 01:36:00,66.7,60.0,30.03,ESE,112,0.0,0.0,79,0.00,,---,0.00,VWS V14.01,2013-03-10 23:36:00,
2013-03-11 01:40:00,66.7,60.0,30.03,ESE,112,0.0,0.0,79,0.00,,---,0.00,VWS V14.01,2013-03-10 23:40:00,
2013-03-11 01:41:00,66.7,60.0,30.03,East,90,0.0,0.0,79,0.00,,---,0.00,VWS V14.01,2013-03-10 23:41:00,
2013-03-11 01:42:00,66.7,60.0,30.03,ESE,112,0.0,0.0,79,0.00,,---,0.00,VWS V14.01,2013-03-10 23:42:00,
2013-03-11 01:45:00,66.7,59.7,30.03,ESE,112,0.0,0.0,78,0.00,,---,0.00,VWS V14.01,2013-03-10 23:45:00,
2013-03-11 01:48:00,66.9,60.2,30.03,ESE,112,0.0,0.0,79,0.00,,---,0.00,VWS V14.01,2013-03-10 23:48:00,
2013-03-11 01:50:00,66.7,60.0,30.03,ESE,112,0.0,0.0,79,0.00,,---,0.00,VWS V14.01,2013-03-10 23:50:00,
2013-03-11 01:51:00,66.7,60.0,30.03,East,90,0.0,0.0,79,0.00,,---,0.00,VWS V14.01,2013-03-10 23:51:00,
2013-03-11 01:52:00,66.7,60.0,30.03,East,90,0.0,0.0,79,0.00,,---,0.00,VWS V14.01,2013-03-10 23:52:00,
2013-03-11 01:53:00,66.7,60.0,30.03,East,90,0.0,0.0,79,0.00,,---,0.00,VWS V14.01,2013-03-10 23:53:00,
2013-03-11 01:56:00,66.9,60.2,30.00,ESE,112,0.0,0.0,79,0.00,,---,0.00,VWS V14.01,2013-03-10 23:56:00,
2013-03-11 01:58:00,66.9,60.6,30.00,ESE,112,0.0,0.0,80,0.00,,---,0.00,VWS V14.01,2013-03-10 23:58:00,
2013-03-11 02:01:00,66.9,60.9,30.00,ENE,68,0.0,0.0,81,0.00,,---,0.00,VWS V14.01,2013-03-11 00:01:00,
2013-03-11 02:02:00,66.9,60.9,30.00,ESE,112,0.0,0.0,81,0.00,,---,0.00,VWS V14.01,2013-03-11 00:02:00,
2013-03-11 02:06:00,66.7,60.7,30.00,ESE,112,0.0,0.0,81,0.00,,---,0.00,VWS V14.01,2013-03-11 00:06:00,
2013-03-11 02:07:00,66.7,60.7,30.00,ENE,68,0.0,0.0,81,0.00,,---,0.00,VWS V14.01,2013-03-11 00:07:00,
2013-03-11 02:08:00,66.7,60.7,30.00,ESE,112,0.0,0.0,81,0.00,,---,0.00,VWS V14.01,2013-03-11 00:08:00,
2013-03-11 02:12:00,66.6,60.6,30.00,ESE,112,0.0,0.0,81,0.00,,---,0.00,VWS V14.01,2013-03-11 00:12:00,
2013-03-11 02:13:00,66.6,60.6,30.00,ENE,68,0.0,0.0,81,0.00,,---,0.00,VWS V14.01,2013-03-11 00:13:00,
2013-03-11 02:17:00,66.6,60.6,30.00,ENE,68,0.0,0.0,81,0.00,,---,0.00,VWS V14.01,2013-03-11 00:17:00,
2013-03-11 02:18:00,66.6,60.6,30.00,East,90,0.0,0.0,81,0.00,,---,0.00,VWS V14.01,2013-03-11 00:18:00,
2013-03-11 02:19:00,66.4,60.4,30.00,East,90,0.0,0.0,81,0.00,,---,0.00,VWS V14.01,2013-03-11 00:19:00,
2013-03-11 02:20:00,66.4,60.4,30.00,ENE,68,0.0,0.0,81,0.00,,---,0.00,VWS V14.01,2013-03-11 00:20:00,
2013-03-11 02:22:00,66.4,60.4,30.00,East,90,0.0,0.0,81,0.00,,---,0.00,VWS V14.01,2013-03-11 00:22:00,
2013-03-11 02:23:00,66.4,60.7,30.00,North,0,0.0,0.0,82,0.00,,---,0.00,VWS V14.01,2013-03-11 00:23:00,
2013-03-11 02:26:00,66.4,60.7,30.00,ENE,68,0.0,0.0,82,0.00,,---,0.00,VWS V14.01,2013-03-11 00:26:00,
2013-03-11 02:28:00,66.4,60.7,30.00,ENE,68,0.0,0.0,82,0.00,,---,0.00,VWS V14.01,2013-03-11 00:28:00,
2013-03-11 02:29:00,66.2,60.5,30.00,East,90,0.0,0.0,82,0.00,,---,0.00,VWS V14.01,2013-03-11 00:29:00,
2013-03-11 02:34:00,66.2,60.5,30.00,East,90,0.0,0.0,82,0.00,,---,0.00,VWS V14.01,2013-03-11 00:34:00,
2013-03-11 02:35:00,66.2,60.5,30.00,ESE,112,0.0,0.0,82,0.00,,---,0.00,VWS V14.01,2013-03-11 00:35:00,
2013-03-11 02:36:00,66.2,60.9,30.00,ENE,68,0.0,0.0,83,0.00,,---,0.00,VWS V14.01,2013-03-11 00:36:00,
2013-03-11 02:38:00,66.2,60.9,30.00,ENE,68,0.0,0.0,83,0.00,,---,0.00,VWS V14.01,2013-03-11 00:38:00,
2013-03-11 02:41:00,66.0,61.0,30.00,ESE,112,0.0,0.0,84,0.00,,---,0.00,VWS V14.01,2013-03-11 00:41:00,
2013-03-11 02:42:00,66.0,61.0,30.00,ESE,112,0.0,0.0,84,0.00,,---,0.00,VWS V14.01,2013-03-11 00:42:00,
2013-03-11 02:43:00,66.0,61.4,30.00,ENE,68,0.0,0.0,85,0.00,,---,0.00,VWS V14.01,2013-03-11 00:43:00,
2013-03-11 02:48:00,66.0,61.4,30.00,ESE,112,0.0,0.0,85,0.00,,---,0.00,VWS V14.01,2013-03-11 00:48:00,
2013-03-11 02:49:00,66.0,61.4,30.00,East,90,0.0,0.0,85,0.00,,---,0.00,VWS V14.01,2013-03-11 00:49:00,
2013-03-11 02:51:00,66.0,61.7,30.00,East,90,0.0,0.0,86,0.00,,---,0.00,VWS V14.01,2013-03-11 00:51:00,
2013-03-11 02:54:00,65.8,61.5,30.00,ENE,68,0.0,0.0,86,0.00,,---,0.00,VWS V14.01,2013-03-11 00:54:00,
2013-03-11 02:55:00,65.8,61.5,30.00,ESE,112,0.0,0.0,86,0.00,,---,0.00,VWS V14.01,2013-03-11 00:55:00,
2013-03-11 03:00:00,65.8,61.9,30.00,ENE,68,0.0,0.0,87,0.00,,---,0.00,VWS V14.01,2013-03-11 01:00:00,
2013-03-11 03:02:00,65.7,61.7,30.00,East,90,0.0,0.0,87,0.00,,---,0.00,VWS V14.01,2013-03-11 01:02:00,
2013-03-11 03:04:00,65.7,61.7,30.00,ENE,68,0.0,0.0,87,0.00,,---,0.00,VWS V14.01,2013-03-11 01:04:00,
2013-03-11 03:05:00,65.7,61.7,30.00,ENE,68,0.0,0.0,87,0.00,,---,0.00,VWS V14.01,2013-03-11 01:05:00,
2013-03-11 03:06:00,65.7,61.7,30.00,ESE,112,0.0,0.0,87,0.00,,---,0.00,VWS V14.01,2013-03-11 01:06:00,
2013-03-11 03:09:00,65.7,62.0,30.00,ESE,112,0.0,0.0,88,0.00,,---,0.00,VWS V14.01,2013-03-11 01:09:00,
2013-03-11 03:10:00,65.7,62.0,30.00,ESE,112,0.0,0.0,88,0.00,,---,0.00,VWS V14.01,2013-03-11 01:10:00,
2013-03-11 03:11:00,65.7,62.0,30.00,East,90,0.0,0.0,88,0.00,,---,0.00,VWS V14.01,2013-03-11 01:11:00,
2013-03-11 03:13:00,65.7,62.3,30.00,ENE,68,0.0,0.0,89,0.00,,---,0.00,VWS V14.01,2013-03-11 01:13:00,
2013-03-11 03:15:00,65.7,62.3,30.00,East,90,0.0,0.0,89,0.00,,---,0.00,VWS V14.01,2013-03-11 01:15:00,
2013-03-11 03:17:00,65.7,62.3,30.00,East,90,0.0,0.0,89,0.00,,---,0.00,VWS V14.01,2013-03-11 01:17:00,
2013-03-11 03:20:00,65.7,62.3,30.00,East,90,0.0,0.0,89,0.00,,---,0.00,VWS V14.01,2013-03-11 01:20:00,
2013-03-11 03:21:00,65.5,62.2,30.00,ENE,68,0.0,0.0,89,0.00,,---,0.00,VWS V14.01,2013-03-11 01:21:00,
2013-03-11 03:23:00,65.5,62.2,30.00,ENE,68,0.0,0.0,89,0.00,,---,0.00,VWS V14.01,2013-03-11 01:23:00,
2013-03-11 03:24:00,65.5,62.2,30.00,East,90,0.0,0.0,89,0.00,,---,0.00,VWS V14.01,2013-03-11 01:24:00,
2013-03-11 03:25:00,65.5,62.2,30.00,ENE,68,0.0,0.0,89,0.00,,---,0.00,VWS V14.01,2013-03-11 01:25:00,
2013-03-11 03:28:00,65.5,62.2,30.00,ESE,112,0.0,0.0,89,0.00,,---,0.00,VWS V14.01,2013-03-11 01:28:00,
2013-03-11 03:32:00,65.5,62.5,30.00,ESE,112,0.0,0.0,90,0.00,,---,0.00,VWS V14.01,2013-03-11 01:32:00,
2013-03-11 03:34:00,65.5,62.5,30.00,East,90,0.0,0.0,90,0.00,,---,0.00,VWS V14.01,2013-03-11 01:34:00,
2013-03-11 03:37:00,65.5,62.5,30.00,ESE,112,0.0,0.0,90,0.00,,---,0.00,VWS V14.01,2013-03-11 01:37:00,
2013-03-11 03:38:00,65.5,62.5,30.00,ESE,112,0.0,0.0,90,0.00,,---,0.00,VWS V14.01,2013-03-11 01:38:00,
2013-03-11 03:39:00,65.5,62.5,30.00,ENE,68,0.0,0.0,90,0.00,,---,0.00,VWS V14.01,2013-03-11 01:39:00,
2013-03-11 03:42:00,65.5,62.5,30.00,ENE,68,0.0,0.0,90,0.00,,---,0.00,VWS V14.01,2013-03-11 01:42:00,
2013-03-11 03:44:00,65.5,62.5,30.00,ESE,112,0.0,0.0,90,0.00,,---,0.00,VWS V14.01,2013-03-11 01:44:00,
2013-03-11 03:47:00,65.5,62.8,30.00,East,90,0.0,0.0,91,0.00,,---,0.00,VWS V14.01,2013-03-11 01:47:00,
2013-03-11 03:49:00,65.5,62.8,30.00,ENE,68,0.0,0.0,91,0.00,,---,0.00,VWS V14.01,2013-03-11 01:49:00,
2013-03-11 03:52:00,65.7,63.0,30.00,East,90,0.0,0.0,91,0.00,,---,0.00,VWS V14.01,2013-03-11 01:52:00,
2013-03-11 03:55:00,65.7,63.3,30.00,ESE,112,0.0,0.0,92,0.00,,---,0.00,VWS V14.01,2013-03-11 01:55:00,
2013-03-11 03:58:00,65.7,63.3,30.00,ESE,112,0.0,0.0,92,0.00,,---,0.00,VWS V14.01,2013-03-11 01:58:00,
2013-03-11 04:02:00,65.7,63.3,30.00,ESE,112,0.0,0.0,92,0.00,,---,0.00,VWS V14.01,2013-03-11 02:02:00,
2013-03-11 04:03:00,65.7,63.3,30.00,ESE,112,0.0,0.0,92,0.00,,---,0.00,VWS V14.01,2013-03-11 02:03:00,
2013-03-11 04:04:00,65.7,63.3,30.00,ESE,112,0.0,0.0,92,0.00,,---,0.00,VWS V14.01,2013-03-11 02:04:00,
2013-03-11 04:05:00,65.7,63.3,30.00,ESE,112,0.0,0.0,92,0.00,,---,0.00,VWS V14.01,2013-03-11 02:05:00,
2013-03-11 04:10:00,65.8,63.5,30.00,ENE,68,0.0,0.0,92,0.00,,---,0.00,VWS V14.01,2013-03-11 02:10:00,
2013-03-11 04:11:00,65.8,63.5,29.97,ESE,112,0.0,0.0,92,0.00,,---,0.00,VWS V14.01,2013-03-11 02:11:00,
2013-03-11 04:12:00,65.8,63.5,29.97,ENE,68,0.0,0.0,92,0.00,,---,0.00,VWS V14.01,2013-03-11 02:12:00,
2013-03-11 04:15:00,65.8,63.5,29.97,ESE,112,0.0,0.0,92,0.00,,---,0.00,VWS V14.01,2013-03-11 02:15:00,
2013-03-11 04:18:00,65.8,63.5,29.97,East,90,0.0,0.0,92,0.00,,---,0.00,VWS V14.01,2013-03-11 02:18:00,
2013-03-11 04:22:00,65.7,63.0,29.97,ENE,68,0.0,0.0,91,0.00,,---,0.00,VWS V14.01,2013-03-11 02:22:00,
2013-03-11 04:23:00,65.7,62.7,29.97,ENE,68,0.0,0.0,90,0.00,,---,0.00,VWS V14.01,2013-03-11 02:23:00,
2013-03-11 04:24:00,65.7,62.7,29.97,ENE,68,0.0,0.0,90,0.00,,---,0.00,VWS V14.01,2013-03-11 02:24:00,
2013-03-11 04:28:00,65.7,62.7,29.97,NNE,22,0.0,0.0,90,0.00,,---,0.00,VWS V14.01,2013-03-11 02:28:00,
2013-03-11 04:29:00,65.7,62.7,29.97,ENE,68,0.0,0.0,90,0.00,,---,0.00,VWS V14.01,2013-03-11 02:29:00,
2013-03-11 04:33:00,65.7,62.7,29.97,ESE,112,0.0,0.0,90,0.00,,---,0.00,VWS V14.01,2013-03-11 02:33:00,
2013-03-11 04:34:00,65.7,62.7,29.97,ENE,68,0.0,0.0,90,0.00,,---,0.00,VWS V14.01,2013-03-11 02:34:00,
2013-03-11 04:35:00,65.7,62.7,29.97,ENE,68,0.0,0.0,90,0.00,,---,0.00,VWS V14.01,2013-03-11 02:35:00,
2013-03-11 04:37:00,65.7,62.7,29.97,East,90,0.0,0.0,90,0.00,,---,0.00,VWS V14.01,2013-03-11 02:37:00,
2013-03-11 04:39:00,65.7,62.7,29.97,ESE,112,0.0,0.0,90,0.00,,---,0.00,VWS V14.01,2013-03-11 02:39:00,
2013-03-11 04:41:00,65.7,62.7,29.97,East,90,0.0,0.0,90,0.00,,---,0.00,VWS V14.01,2013-03-11 02:41:00,
2013-03-11 04:43:00,65.7,62.7,29.97,East,90,4.5,4.5,90,0.00,,---,0.00,VWS V14.01,2013-03-11 02:43:00,
2013-03-11 04:45:00,65.7,62.7,29.97,ENE,68,0.0,0.0,90,0.00,,---,0.00,VWS V14.01,2013-03-11 02:45:00,
2013-03-11 04:46:00,65.7,62.7,29.97,ENE,68,0.0,0.0,90,0.00,,---,0.00,VWS V14.01,2013-03-11 02:46:00,
2013-03-11 04:48:00,65.7,62.7,29.97,East,90,0.0,0.0,90,0.00,,---,0.00,VWS V14.01,2013-03-11 02:48:00,
2013-03-11 04:52:00,65.7,62.7,29.97,ESE,112,3.1,3.1,90,0.00,,---,0.00,VWS V14.01,2013-03-11 02:52:00,
2013-03-11 04:53:00,65.7,62.7,29.97,ESE,112,3.1,3.1,90,0.00,,---,0.00,VWS V14.01,2013-03-11 02:53:00,
2013-03-11 04:56:00,65.7,62.7,29.97,ESE,112,3.1,3.1,90,0.00,,---,0.00,VWS V14.01,2013-03-11 02:56:00,
2013-03-11 04:59:00,65.7,62.7,29.97,ESE,112,3.1,3.1,90,0.00,,---,0.00,VWS V14.01,2013-03-11 02:59:00,
2013-03-11 05:02:00,65.7,62.7,29.97,ESE,112,3.1,3.1,90,0.00,,---,0.00,VWS V14.01,2013-03-11 03:02:00,
2013-03-11 05:04:00,65.7,62.7,29.97,ESE,112,0.0,0.0,90,0.00,,---,0.00,VWS V14.01,2013-03-11 03:04:00,
2013-03-11 05:05:00,65.7,62.7,29.97,ESE,112,0.0,0.0,90,0.00,,---,0.00,VWS V14.01,2013-03-11 03:05:00,
2013-03-11 05:07:00,65.5,62.8,29.97,ESE,112,0.0,0.0,91,0.00,,---,0.00,VWS V14.01,2013-03-11 03:07:00,
2013-03-11 05:10:00,65.7,63.3,29.97,ESE,112,0.0,0.0,92,0.00,,---,0.00,VWS V14.01,2013-03-11 03:10:00,
2013-03-11 05:13:00,65.7,63.3,30.00,ESE,112,0.0,0.0,92,0.00,,---,0.00,VWS V14.01,2013-03-11 03:13:00,
2013-03-11 05:15:00,65.5,63.1,30.00,ESE,112,0.0,0.0,92,0.00,,---,0.00,VWS V14.01,2013-03-11 03:15:00,
2013-03-11 05:17:00,65.5,63.1,30.00,ENE,68,0.0,0.0,92,0.00,,---,0.00,VWS V14.01,2013-03-11 03:17:00,
2013-03-11 05:19:00,65.5,63.1,30.00,ENE,68,0.0,0.0,92,0.00,,---,0.00,VWS V14.01,2013-03-11 03:19:00,
2013-03-11 05:20:00,65.5,63.1,30.00,East,90,0.0,0.0,92,0.00,,---,0.00,VWS V14.01,2013-03-11 03:20:00,
2013-03-11 05:22:00,65.5,63.1,30.00,ENE,68,0.0,0.0,92,0.00,,---,0.00,VWS V14.01,2013-03-11 03:22:00,
2013-03-11 05:24:00,65.5,63.4,30.00,ENE,68,0.0,0.0,93,0.00,,---,0.00,VWS V14.01,2013-03-11 03:24:00,
2013-03-11 05:25:00,65.3,63.2,30.00,ENE,68,0.0,0.0,93,0.00,,---,0.00,VWS V14.01,2013-03-11 03:25:00,
2013-03-11 05:26:00,65.3,63.2,29.97,ENE,68,0.0,0.0,93,0.00,,---,0.00,VWS V14.01,2013-03-11 03:26:00,
2013-03-11 05:27:00,65.3,63.2,29.97,East,90,0.0,0.0,93,0.00,,---,0.00,VWS V14.01,2013-03-11 03:27:00,
2013-03-11 05:31:00,65.1,63.0,29.97,ENE,68,0.0,0.0,93,0.00,,---,0.00,VWS V14.01,2013-03-11 03:31:00,
2013-03-11 05:32:00,65.1,63.0,29.97,ESE,112,0.0,0.0,93,0.00,,---,0.00,VWS V14.01,2013-03-11 03:32:00,
2013-03-11 05:37:00,65.1,63.0,29.97,East,90,0.0,0.0,93,0.00,,---,0.00,VWS V14.01,2013-03-11 03:37:00,
2013-03-11 05:38:00,65.1,63.0,29.97,East,90,0.0,0.0,93,0.00,,---,0.00,VWS V14.01,2013-03-11 03:38:00,
2013-03-11 05:39:00,65.1,63.0,29.97,ENE,68,0.0,0.0,93,0.00,,---,0.00,VWS V14.01,2013-03-11 03:39:00,
2013-03-11 05:40:00,64.9,62.9,29.97,ESE,112,0.0,0.0,93,0.00,,---,0.00,VWS V14.01,2013-03-11 03:40:00,
2013-03-11 05:42:00,64.9,62.9,29.97,ENE,68,0.0,0.0,93,0.00,,---,0.00,VWS V14.01,2013-03-11 03:42:00,
2013-03-11 05:45:00,64.9,63.2,29.97,East,90,0.0,0.0,94,0.00,,---,0.00,VWS V14.01,2013-03-11 03:45:00,
2013-03-11 05:48:00,65.1,63.3,29.97,ESE,112,0.0,0.0,94,0.00,,---,0.00,VWS V14.01,2013-03-11 03:48:00,
2013-03-11 05:50:00,65.1,63.7,29.97,East,90,0.0,0.0,95,0.00,,---,0.00,VWS V14.01,2013-03-11 03:50:00,
2013-03-11 05:54:00,65.1,63.7,29.97,ENE,68,0.0,0.0,95,0.00,,---,0.00,VWS V14.01,2013-03-11 03:54:00,
2013-03-11 05:56:00,65.1,63.7,29.97,ENE,68,0.0,0.0,95,0.00,,---,0.00,VWS V14.01,2013-03-11 03:56:00,
2013-03-11 05:57:00,65.1,63.7,29.97,ENE,68,0.0,0.0,95,0.00,,---,0.00,VWS V14.01,2013-03-11 03:57:00,
2013-03-11 05:59:00,65.1,63.7,29.97,ENE,68,0.0,0.0,95,0.00,,---,0.00,VWS V14.01,2013-03-11 03:59:00,
2013-03-11 06:00:00,65.1,63.7,29.97,ENE,68,0.0,0.0,95,0.00,,---,0.00,VWS V14.01,2013-03-11 04:00:00,
2013-03-11 06:02:00,65.1,63.7,29.97,ENE,68,0.0,0.0,95,0.00,,---,0.00,VWS V14.01,2013-03-11 04:02:00,
2013-03-11 06:03:00,65.1,63.7,29.97,East,90,0.0,0.0,95,0.00,,---,0.00,VWS V14.01,2013-03-11 04:03:00,
2013-03-11 06:05:00,65.1,63.7,29.97,ENE,68,0.0,0.0,95,0.00,,---,0.00,VWS V14.01,2013-03-11 04:05:00,
2013-03-11 06:06:00,65.1,63.7,29.97,ENE,68,0.0,0.0,95,0.00,,---,0.00,VWS V14.01,2013-03-11 04:06:00,
2013-03-11 06:07:00,65.1,63.7,29.97,ESE,112,0.0,0.0,95,0.00,,---,0.00,VWS V14.01,2013-03-11 04:07:00,
2013-03-11 06:08:00,65.1,63.7,29.97,ESE,112,0.0,0.0,95,0.00,,---,0.00,VWS V14.01,2013-03-11 04:08:00,
2013-03-11 06:14:00,65.1,63.7,29.97,ENE,68,0.0,0.0,95,0.00,,---,0.00,VWS V14.01,2013-03-11 04:14:00,
2013-03-11 06:15:00,65.1,63.7,29.97,ESE,112,0.0,0.0,95,0.00,,---,0.00,VWS V14.01,2013-03-11 04:15:00,
2013-03-11 06:16:00,65.1,63.7,29.97,ENE,68,0.0,0.0,95,0.00,,---,0.00,VWS V14.01,2013-03-11 04:16:00,
2013-03-11 06:20:00,65.1,63.7,29.97,ESE,112,0.0,0.0,95,0.00,,---,0.00,VWS V14.01,2013-03-11 04:20:00,
2013-03-11 06:22:00,64.9,63.5,29.97,ENE,68,0.0,0.0,95,0.00,,---,0.00,VWS V14.01,2013-03-11 04:22:00,
2013-03-11 06:23:00,65.1,63.7,29.97,ENE,68,0.0,0.0,95,0.00,,---,0.00,VWS V14.01,2013-03-11 04:23:00,
2013-03-11 06:24:00,65.1,64.0,29.97,East,90,0.0,0.0,96,0.00,,---,0.00,VWS V14.01,2013-03-11 04:24:00,
2013-03-11 06:25:00,65.1,64.0,29.97,ENE,68,0.0,0.0,96,0.00,,---,0.00,VWS V14.01,2013-03-11 04:25:00,
2013-03-11 06:29:00,65.1,64.0,29.97,East,90,0.0,0.0,96,0.00,,---,0.00,VWS V14.01,2013-03-11 04:29:00,
2013-03-11 06:30:00,65.1,64.0,29.97,ENE,68,0.0,0.0,96,0.00,,---,0.00,VWS V14.01,2013-03-11 04:30:00,
2013-03-11 06:31:00,65.3,64.1,29.97,ESE,112,0.0,0.0,96,0.00,,---,0.00,VWS V14.01,2013-03-11 04:31:00,
2013-03-11 06:36:00,65.1,64.0,29.97,ENE,68,0.0,0.0,96,0.00,,---,0.00,VWS V14.01,2013-03-11 04:36:00,
2013-03-11 06:37:00,65.1,64.0,29.97,NNE,22,0.0,0.0,96,0.00,,---,0.00,VWS V14.01,2013-03-11 04:37:00,
2013-03-11 06:39:00,65.3,64.1,29.97,ENE,68,0.0,0.0,96,0.00,,---,0.00,VWS V14.01,2013-03-11 04:39:00,
2013-03-11 06:41:00,65.5,64.3,29.97,ENE,68,0.0,0.0,96,0.00,,---,0.00,VWS V14.01,2013-03-11 04:41:00,
2013-03-11 06:44:00,65.5,64.3,29.97,East,90,0.0,0.0,96,0.00,,---,0.00,VWS V14.01,2013-03-11 04:44:00,
2013-03-11 06:47:00,65.5,64.3,29.97,ENE,68,0.0,0.0,96,0.00,,---,0.00,VWS V14.01,2013-03-11 04:47:00,
2013-03-11 06:49:00,65.5,64.3,29.97,ENE,68,0.0,0.0,96,0.00,,---,0.00,VWS V14.01,2013-03-11 04:49:00,
2013-03-11 06:50:00,65.5,64.3,29.97,ESE,112,0.0,0.0,96,0.00,,---,0.00,VWS V14.01,2013-03-11 04:50:00,
2013-03-11 06:54:00,65.5,64.3,29.97,NNE,22,0.0,0.0,96,0.00,,---,0.00,VWS V14.01,2013-03-11 04:54:00,
2013-03-11 06:56:00,65.5,64.0,29.97,ENE,68,0.0,0.0,95,0.00,,---,0.00,VWS V14.01,2013-03-11 04:56:00,
2013-03-11 07:00:00,65.5,64.0,29.97,NE,45,0.0,0.0,95,0.00,,---,0.00,VWS V14.01,2013-03-11 05:00:00,
2013-03-11 07:01:00,65.5,64.0,29.97,East,90,0.0,0.0,95,0.00,,---,0.00,VWS V14.01,2013-03-11 05:01:00,
2013-03-11 07:02:00,65.5,64.0,29.97,East,90,0.0,0.0,95,0.00,,---,0.00,VWS V14.01,2013-03-11 05:02:00,
2013-03-11 07:06:00,65.7,64.2,29.97,ENE,68,0.0,0.0,95,0.00,,---,0.00,VWS V14.01,2013-03-11 05:06:00,
2013-03-11 07:10:00,66.0,64.6,29.97,ENE,68,0.0,0.0,95,0.00,,---,0.00,VWS V14.01,2013-03-11 05:10:00,
2013-03-11 07:12:00,66.2,64.4,29.97,ENE,68,0.0,0.0,94,0.00,,---,0.00,VWS V14.01,2013-03-11 05:12:00,
2013-03-11 07:13:00,66.4,64.6,29.97,NE,45,0.0,0.0,94,0.00,,---,0.00,VWS V14.01,2013-03-11 05:13:00,
2013-03-11 07:16:00,66.9,65.1,29.97,NNE,22,0.0,0.0,94,0.00,,---,0.00,VWS V14.01,2013-03-11 05:16:00,
2013-03-11 07:17:00,67.1,65.3,29.97,ENE,68,0.0,0.0,94,0.00,,---,0.00,VWS V14.01,2013-03-11 05:17:00,
2013-03-11 07:18:00,67.1,65.3,29.97,East,90,0.0,0.0,94,0.00,,---,0.00,VWS V14.01,2013-03-11 05:18:00,
2013-03-11 07:22:00,67.3,64.9,29.97,ENE,68,0.0,0.0,92,0.00,,---,0.00,VWS V14.01,2013-03-11 05:22:00,
2013-03-11 07:25:00,67.6,64.6,29.97,NE,45,0.0,0.0,90,0.00,,---,0.00,VWS V14.01,2013-03-11 05:25:00,
2013-03-11 07:26:00,67.6,64.3,29.97,ENE,68,0.0,0.0,89,0.00,,---,0.00,VWS V14.01,2013-03-11 05:26:00,
2013-03-11 07:27:00,67.6,64.3,29.97,ENE,68,0.0,0.0,89,0.00,,---,0.00,VWS V14.01,2013-03-11 05:27:00,
2013-03-11 07:30:00,67.5,62.8,29.97,East,90,0.0,0.0,85,0.00,,---,0.00,VWS V14.01,2013-03-11 05:30:00,
2013-03-11 07:32:00,68.0,61.6,29.97,ENE,68,0.0,0.0,80,0.00,,---,0.00,VWS V14.01,2013-03-11 05:32:00,
2013-03-11 07:33:00,68.2,61.8,29.97,ENE,68,0.0,0.0,80,0.00,,---,0.00,VWS V14.01,2013-03-11 05:33:00,
2013-03-11 07:38:00,68.7,60.9,29.97,ESE,112,0.0,0.0,76,0.00,,---,0.00,VWS V14.01,2013-03-11 05:38:00,
2013-03-11 07:40:00,68.7,60.5,29.97,NNW,338,0.0,0.0,75,0.00,,---,0.00,VWS V14.01,2013-03-11 05:40:00,
2013-03-11 07:44:00,69.3,59.1,30.00,ENE,68,0.0,0.0,70,0.00,,---,0.00,VWS V14.01,2013-03-11 05:44:00,
2013-03-11 07:46:00,69.6,58.6,30.00,ESE,112,0.0,0.0,68,0.00,,---,0.00,VWS V14.01,2013-03-11 05:46:00,
2013-03-11 07:49:00,69.6,57.8,30.00,ENE,68,0.0,0.0,66,0.00,,---,0.00,VWS V14.01,2013-03-11 05:49:00,
2013-03-11 07:53:00,69.8,57.5,30.00,ESE,112,0.0,0.0,65,0.00,,---,0.00,VWS V14.01,2013-03-11 05:53:00,
2013-03-11 07:55:00,70.2,57.4,30.00,ESE,112,0.0,0.0,64,0.00,,---,0.00,VWS V14.01,2013-03-11 05:55:00,
2013-03-11 07:58:00,70.3,57.2,29.97,East,90,0.0,0.0,63,0.00,,---,0.00,VWS V14.01,2013-03-11 05:58:00,
2013-03-11 07:59:00,70.3,57.2,29.97,East,90,0.0,0.0,63,0.00,,---,0.00,VWS V14.01,2013-03-11 05:59:00,
2013-03-11 08:01:00,70.7,57.5,29.97,ESE,112,0.0,0.0,63,0.00,,---,0.00,VWS V14.01,2013-03-11 06:01:00,
2013-03-11 08:04:00,70.9,57.2,29.97,ESE,112,0.0,0.0,62,0.00,,---,0.00,VWS V14.01,2013-03-11 06:04:00,
2013-03-11 08:05:00,70.9,56.8,29.97,ESE,112,0.0,0.0,61,0.00,,---,0.00,VWS V14.01,2013-03-11 06:05:00,
2013-03-11 08:06:00,70.7,56.2,29.97,ENE,68,0.0,0.0,60,0.00,,---,0.00,VWS V14.01,2013-03-11 06:06:00,
2013-03-11 08:09:00,70.9,55.8,29.97,ESE,112,0.0,0.0,59,0.00,,---,0.00,VWS V14.01,2013-03-11 06:09:00,
2013-03-11 08:11:00,70.7,55.7,30.00,ENE,68,0.0,0.0,59,0.00,,---,0.00,VWS V14.01,2013-03-11 06:11:00,
2013-03-11 08:12:00,70.9,55.8,30.00,ESE,112,0.0,0.0,59,0.00,,---,0.00,VWS V14.01,2013-03-11 06:12:00,
2013-03-11 08:13:00,70.9,55.8,30.00,East,90,0.0,1.1,59,0.00,,---,0.00,VWS V14.01,2013-03-11 06:13:00,
2013-03-11 08:17:00,71.2,55.7,30.00,ESE,112,0.0,0.0,58,0.00,,---,0.00,VWS V14.01,2013-03-11 06:17:00,
2013-03-11 08:19:00,71.2,55.7,30.00,ESE,112,0.0,0.0,58,0.00,,---,0.00,VWS V14.01,2013-03-11 06:19:00,
2013-03-11 08:21:00,71.4,55.9,30.00,ESE,112,0.0,0.0,58,0.00,,---,0.00,VWS V14.01,2013-03-11 06:21:00,
2013-03-11 08:24:00,71.6,56.1,30.00,ENE,68,0.0,0.0,58,0.00,,---,0.00,VWS V14.01,2013-03-11 06:24:00,
2013-03-11 08:26:00,71.6,55.1,29.97,ENE,68,0.0,1.3,56,0.00,,---,0.00,VWS V14.01,2013-03-11 06:26:00,
2013-03-11 08:29:00,71.8,55.3,29.97,NNE,22,0.0,0.0,56,0.00,,---,0.00,VWS V14.01,2013-03-11 06:29:00,
2013-03-11 08:31:00,71.8,54.8,29.97,ENE,68,0.0,0.0,55,0.00,,---,0.00,VWS V14.01,2013-03-11 06:31:00,
2013-03-11 08:32:00,72.0,54.9,29.97,East,90,0.0,0.0,55,0.00,,---,0.00,VWS V14.01,2013-03-11 06:32:00,
2013-03-11 08:36:00,72.0,54.4,29.97,ESE,112,0.0,7.2,54,0.00,,---,0.00,VWS V14.01,2013-03-11 06:36:00,
2013-03-11 08:40:00,72.3,55.3,29.97,ENE,68,0.0,0.0,55,0.00,,---,0.00,VWS V14.01,2013-03-11 06:40:00,
2013-03-11 08:41:00,72.3,55.3,30.00,ESE,112,0.0,0.0,55,0.00,,---,0.00,VWS V14.01,2013-03-11 06:41:00,
2013-03-11 08:42:00,72.9,55.8,30.00,ESE,112,0.0,0.0,55,0.00,,---,0.00,VWS V14.01,2013-03-11 06:42:00,
2013-03-11 08:47:00,72.5,54.4,30.00,ESE,112,3.1,3.1,53,0.00,,---,0.00,VWS V14.01,2013-03-11 06:47:00,
2013-03-11 08:48:00,72.1,54.1,30.00,East,90,0.0,3.1,53,0.00,,---,0.00,VWS V14.01,2013-03-11 06:48:00,
2013-03-11 08:51:00,72.1,54.6,30.00,ENE,68,0.0,0.0,54,0.00,,---,0.00,VWS V14.01,2013-03-11 06:51:00,
2013-03-11 08:52:00,72.5,54.9,30.00,ENE,68,0.0,0.0,54,0.00,,---,0.00,VWS V14.01,2013-03-11 06:52:00,
2013-03-11 08:54:00,72.3,53.7,30.00,ESE,112,0.0,0.0,52,0.00,,---,0.00,VWS V14.01,2013-03-11 06:54:00,
2013-03-11 08:55:00,72.0,53.4,30.00,ESE,112,0.0,0.0,52,0.00,,---,0.00,VWS V14.01,2013-03-11 06:55:00,
2013-03-11 08:56:00,72.0,53.9,29.97,ESE,112,0.0,0.0,53,0.00,,---,0.00,VWS V14.01,2013-03-11 06:56:00,
2013-03-11 09:00:00,72.1,55.1,29.97,ESE,112,0.0,0.0,55,0.00,,---,0.00,VWS V14.01,2013-03-11 07:00:00,
2013-03-11 09:02:00,72.5,55.4,29.97,ENE,68,0.0,0.0,55,0.00,,---,0.00,VWS V14.01,2013-03-11 07:02:00,
2013-03-11 09:04:00,72.3,55.3,29.97,East,90,0.0,0.0,55,0.00,,---,0.00,VWS V14.01,2013-03-11 07:04:00,
2013-03-11 09:05:00,72.3,54.8,29.97,ESE,112,0.0,0.0,54,0.00,,---,0.00,VWS V14.01,2013-03-11 07:05:00,
2013-03-11 09:07:00,72.3,54.8,29.97,ENE,68,0.0,0.0,54,0.00,,---,0.00,VWS V14.01,2013-03-11 07:07:00,
2013-03-11 09:10:00,72.5,54.4,29.97,SE,135,0.0,0.0,53,0.00,,---,0.00,VWS V14.01,2013-03-11 07:10:00,
2013-03-11 09:11:00,72.5,54.4,29.97,ESE,112,0.0,0.0,53,0.00,,---,0.00,VWS V14.01,2013-03-11 07:11:00,
2013-03-11 09:15:00,71.8,53.8,29.97,East,90,0.0,0.0,53,0.00,,---,0.00,VWS V14.01,2013-03-11 07:15:00,
2013-03-11 09:17:00,71.6,55.1,29.97,ENE,68,0.0,0.0,56,0.00,,---,0.00,VWS V14.01,2013-03-11 07:17:00,
2013-03-11 09:20:00,72.9,57.2,29.97,ESE,112,0.0,0.0,58,0.00,,---,0.00,VWS V14.01,2013-03-11 07:20:00,
2013-03-11 09:21:00,72.9,56.3,29.97,NE,45,0.0,0.0,56,0.00,,---,0.00,VWS V14.01,2013-03-11 07:21:00,
2013-03-11 09:22:00,72.9,56.3,29.97,NNE,22,0.0,0.0,56,0.00,,---,0.00,VWS V14.01,2013-03-11 07:22:00,
2013-03-11 09:26:00,72.9,55.3,30.00,ENE,68,0.0,0.0,54,0.00,,---,0.00,VWS V14.01,2013-03-11 07:26:00,
2013-03-11 09:28:00,72.9,55.3,30.00,ESE,112,0.0,0.0,54,0.00,,---,0.00,VWS V14.01,2013-03-11 07:28:00,
2013-03-11 09:29:00,73.2,55.6,30.00,East,90,0.0,0.0,54,0.00,,---,0.00,VWS V14.01,2013-03-11 07:29:00,
2013-03-11 09:33:00,73.8,54.0,30.00,ESE,112,0.0,0.0,50,0.00,,---,0.00,VWS V14.01,2013-03-11 07:33:00,
2013-03-11 09:39:00,73.9,54.2,30.00,ENE,68,0.0,0.0,50,0.00,,---,0.00,VWS V14.01,2013-03-11 07:39:00,
2013-03-11 09:40:00,74.1,53.8,30.00,ESE,112,0.0,0.0,49,0.00,,---,0.00,VWS V14.01,2013-03-11 07:40:00,
2013-03-11 09:45:00,74.3,53.9,29.97,ESE,112,0.0,0.0,49,0.00,,---,0.00,VWS V14.01,2013-03-11 07:45:00,
2013-03-11 09:46:00,74.1,53.8,29.97,ESE,112,0.0,0.0,49,0.00,,---,0.00,VWS V14.01,2013-03-11 07:46:00,
2013-03-11 09:47:00,74.3,53.4,29.97,ESE,112,0.0,0.0,48,0.00,,---,0.00,VWS V14.01,2013-03-11 07:47:00,
2013-03-11 09:50:00,74.3,53.4,29.97,ESE,112,0.0,0.0,48,0.00,,---,0.00,VWS V14.01,2013-03-11 07:50:00,
2013-03-11 09:51:00,74.1,53.2,29.97,ESE,112,0.0,0.0,48,0.00,,---,0.00,VWS V14.01,2013-03-11 07:51:00,
2013-03-11 09:55:00,74.8,54.4,29.97,ESE,112,0.0,0.0,49,0.00,,---,0.00,VWS V14.01,2013-03-11 07:55:00,
2013-03-11 09:56:00,74.3,52.8,29.97,East,90,0.0,0.0,47,0.00,,---,0.00,VWS V14.01,2013-03-11 07:56:00,
2013-03-11 09:57:00,74.1,52.0,29.97,ENE,68,0.0,0.0,46,0.00,,---,0.00,VWS V14.01,2013-03-11 07:57:00,
2013-03-11 10:01:00,74.1,52.0,29.97,SE,135,0.0,0.0,46,0.00,,---,0.00,VWS V14.01,2013-03-11 08:01:00,
2013-03-11 10:02:00,74.1,52.0,29.97,ESE,112,0.0,0.0,46,0.00,,---,0.00,VWS V14.01,2013-03-11 08:02:00,
2013-03-11 10:03:00,74.3,52.8,29.97,East,90,0.0,0.0,47,0.00,,---,0.00,VWS V14.01,2013-03-11 08:03:00,
2013-03-11 10:08:00,74.5,53.0,29.97,ESE,112,0.0,3.6,47,0.00,,---,0.00,VWS V14.01,2013-03-11 08:08:00,
2013-03-11 10:11:00,74.7,52.5,29.97,East,90,0.0,0.0,46,0.00,,---,0.00,VWS V14.01,2013-03-11 08:11:00,
2013-03-11 10:12:00,74.7,52.5,29.97,East,90,0.0,0.0,46,0.00,,---,0.00,VWS V14.01,2013-03-11 08:12:00,
2013-03-11 10:15:00,74.8,52.7,29.97,ESE,112,2.7,2.7,46,0.00,,---,0.00,VWS V14.01,2013-03-11 08:15:00,
2013-03-11 10:17:00,74.5,52.4,29.97,ENE,68,2.5,2.5,46,0.00,,---,0.00,VWS V14.01,2013-03-11 08:17:00,
2013-03-11 10:19:00,74.7,51.9,29.97,East,90,0.0,0.0,45,0.00,,---,0.00,VWS V14.01,2013-03-11 08:19:00,
2013-03-11 10:21:00,74.8,52.1,29.97,ESE,112,0.0,0.0,45,0.00,,---,0.00,VWS V14.01,2013-03-11 08:21:00,
2013-03-11 10:22:00,75.0,52.9,29.97,ESE,112,0.0,0.0,46,0.00,,---,0.00,VWS V14.01,2013-03-11 08:22:00,
2013-03-11 10:24:00,75.4,53.2,29.97,East,90,0.0,0.0,46,0.00,,---,0.00,VWS V14.01,2013-03-11 08:24:00,
2013-03-11 10:26:00,75.9,53.1,30.00,East,90,0.0,0.0,45,0.00,,---,0.00,VWS V14.01,2013-03-11 08:26:00,
2013-03-11 10:29:00,75.7,52.3,30.00,ESE,112,0.0,0.0,44,0.00,,---,0.00,VWS V14.01,2013-03-11 08:29:00,
2013-03-11 10:31:00,75.9,52.5,30.00,East,90,0.0,0.0,44,0.00,,---,0.00,VWS V14.01,2013-03-11 08:31:00,
2013-03-11 10:32:00,75.9,52.5,30.00,ESE,112,0.0,0.0,44,0.00,,---,0.00,VWS V14.01,2013-03-11 08:32:00,
2013-03-11 10:35:00,76.3,52.2,30.00,East,90,0.0,0.0,43,0.00,,---,0.00,VWS V14.01,2013-03-11 08:35:00,
2013-03-11 10:38:00,76.3,52.2,30.00,ESE,112,0.0,0.0,43,0.00,,---,0.00,VWS V14.01,2013-03-11 08:38:00,
2013-03-11 10:41:00,75.9,51.2,29.97,ENE,68,0.0,0.0,42,0.00,,---,0.00,VWS V14.01,2013-03-11 08:41:00,
2013-03-11 10:42:00,76.1,52.0,29.97,East,90,0.0,0.0,43,0.00,,---,0.00,VWS V14.01,2013-03-11 08:42:00,
2013-03-11 10:46:00,76.1,52.0,29.97,ESE,112,0.0,0.0,43,0.00,,---,0.00,VWS V14.01,2013-03-11 08:46:00,
2013-03-11 10:47:00,75.7,51.7,29.97,ESE,112,0.0,0.0,43,0.00,,---,0.00,VWS V14.01,2013-03-11 08:47:00,
2013-03-11 10:48:00,75.4,51.3,29.97,East,90,0.0,0.0,43,0.00,,---,0.00,VWS V14.01,2013-03-11 08:48:00,
2013-03-11 10:51:00,75.2,51.2,29.97,ESE,112,0.0,0.0,43,0.00,,---,0.00,VWS V14.01,2013-03-11 08:51:00,
2013-03-11 10:52:00,75.2,51.8,29.97,ENE,68,0.0,0.0,44,0.00,,---,0.00,VWS V14.01,2013-03-11 08:52:00,
2013-03-11 10:54:00,74.8,50.9,29.97,ESE,112,0.0,0.0,43,0.00,,---,0.00,VWS V14.01,2013-03-11 08:54:00,
2013-03-11 10:56:00,75.6,52.1,29.97,ESE,112,0.0,0.0,44,0.00,,---,0.00,VWS V14.01,2013-03-11 08:56:00,
2013-03-11 10:59:00,75.6,51.5,29.97,East,90,0.0,0.0,43,0.00,,---,0.00,VWS V14.01,2013-03-11 08:59:00,
2013-03-11 11:00:00,75.6,51.5,29.97,ESE,112,0.0,0.0,43,0.00,,---,0.00,VWS V14.01,2013-03-11 09:00:00,
2013-03-11 11:02:00,75.7,51.7,29.97,East,90,0.0,0.0,43,0.00,,---,0.00,VWS V14.01,2013-03-11 09:02:00,
2013-03-11 11:07:00,76.3,51.5,29.97,ENE,68,0.0,0.0,42,0.00,,---,0.00,VWS V14.01,2013-03-11 09:07:00,
2013-03-11 11:08:00,76.5,51.7,29.97,ENE,68,0.0,0.0,42,0.00,,---,0.00,VWS V14.01,2013-03-11 09:08:00,
2013-03-11 11:12:00,76.1,51.4,29.97,SE,135,0.0,0.0,42,0.00,,---,0.00,VWS V14.01,2013-03-11 09:12:00,
2013-03-11 11:15:00,76.1,51.4,29.97,ESE,112,0.0,0.0,42,0.00,,---,0.00,VWS V14.01,2013-03-11 09:15:00,
2013-03-11 11:17:00,76.1,51.4,29.97,ESE,112,0.0,0.0,42,0.00,,---,0.00,VWS V14.01,2013-03-11 09:17:00,
2013-03-11 11:19:00,76.1,51.4,29.97,ESE,112,0.0,0.0,42,0.00,,---,0.00,VWS V14.01,2013-03-11 09:19:00,
2013-03-11 11:21:00,75.9,51.2,29.97,ESE,112,0.0,0.0,42,0.00,,---,0.00,VWS V14.01,2013-03-11 09:21:00,
2013-03-11 11:23:00,75.9,51.2,29.97,East,90,0.0,0.0,42,0.00,,---,0.00,VWS V14.01,2013-03-11 09:23:00,
2013-03-11 11:28:00,75.9,51.2,29.97,ESE,112,0.0,0.0,42,0.00,,---,0.00,VWS V14.01,2013-03-11 09:28:00,
2013-03-11 11:29:00,75.6,50.9,29.97,ENE,68,0.0,0.0,42,0.00,,---,0.00,VWS V14.01,2013-03-11 09:29:00,
2013-03-11 11:31:00,75.4,50.7,29.97,ESE,112,0.0,0.0,42,0.00,,---,0.00,VWS V14.01,2013-03-11 09:31:00,
2013-03-11 11:34:00,75.6,51.5,29.97,ESE,112,0.0,0.0,43,0.00,,---,0.00,VWS V14.01,2013-03-11 09:34:00,
2013-03-11 11:35:00,75.0,51.0,29.97,ESE,112,0.0,0.0,43,0.00,,---,0.00,VWS V14.01,2013-03-11 09:35:00,
2013-03-11 11:39:00,75.4,52.0,29.97,ESE,112,0.0,0.0,44,0.00,,---,0.00,VWS V14.01,2013-03-11 09:39:00,
2013-03-11 11:40:00,75.6,52.1,29.97,East,90,0.0,0.0,44,0.00,,---,0.00,VWS V14.01,2013-03-11 09:40:00,
2013-03-11 11:44:00,76.1,52.0,29.97,ESE,112,0.0,0.0,43,0.00,,---,0.00,VWS V14.01,2013-03-11 09:44:00,
2013-03-11 11:45:00,76.3,52.2,29.97,SSE,158,0.0,0.0,43,0.00,,---,0.00,VWS V14.01,2013-03-11 09:45:00,
2013-03-11 11:46:00,76.5,51.7,29.97,ESE,112,0.0,0.0,42,0.00,,---,0.00,VWS V14.01,2013-03-11 09:46:00,
2013-03-11 11:50:00,76.5,51.7,29.97,ESE,112,0.0,0.0,42,0.00,,---,0.00,VWS V14.01,2013-03-11 09:50:00,
2013-03-11 11:51:00,76.3,50.9,29.97,East,90,0.0,0.0,41,0.00,,---,0.00,VWS V14.01,2013-03-11 09:51:00,
2013-03-11 11:53:00,76.5,51.0,29.97,East,90,0.0,0.0,41,0.00,,---,0.00,VWS V14.01,2013-03-11 09:53:00,
2013-03-11 11:54:00,76.5,51.0,29.97,East,90,0.0,0.0,41,0.00,,---,0.00,VWS V14.01,2013-03-11 09:54:00,
2013-03-11 11:56:00,76.3,51.5,29.97,ENE,68,0.0,0.0,42,0.00,,---,0.00,VWS V14.01,2013-03-11 09:56:00,
2013-03-11 11:58:00,76.1,50.7,29.97,ESE,112,0.0,0.0,41,0.00,,---,0.00,VWS V14.01,2013-03-11 09:58:00,
2013-03-11 12:01:00,75.9,50.5,29.97,ENE,68,0.0,0.0,41,0.00,,---,0.00,VWS V14.01,2013-03-11 10:01:00,
2013-03-11 12:03:00,76.3,51.5,29.97,ENE,68,0.0,0.0,42,0.00,,---,0.00,VWS V14.01,2013-03-11 10:03:00,
2013-03-11 12:04:00,75.9,50.5,29.97,NE,45,0.0,0.0,41,0.00,,---,0.00,VWS V14.01,2013-03-11 10:04:00,
2013-03-11 12:06:00,75.7,50.4,29.97,ESE,112,0.0,0.0,41,0.00,,---,0.00,VWS V14.01,2013-03-11 10:06:00,
2013-03-11 12:08:00,75.4,50.1,29.97,ENE,68,0.0,0.0,41,0.00,,---,0.00,VWS V14.01,2013-03-11 10:08:00,
2013-03-11 12:09:00,75.6,50.9,29.97,ESE,112,0.0,0.0,42,0.00,,---,0.00,VWS V14.01,2013-03-11 10:09:00,
2013-03-11 12:14:00,76.1,50.7,29.97,ESE,112,0.0,0.0,41,0.00,,---,0.00,VWS V14.01,2013-03-11 10:14:00,
2013-03-11 12:15:00,75.9,50.5,29.97,East,90,0.0,0.0,41,0.00,,---,0.00,VWS V14.01,2013-03-11 10:15:00,
2013-03-11 12:19:00,75.7,51.0,29.97,ESE,112,0.0,0.0,42,0.00,,---,0.00,VWS V14.01,2013-03-11 10:19:00,
2013-03-11 12:20:00,75.7,51.0,29.97,ESE,112,0.0,0.0,42,0.00,,---,0.00,VWS V14.01,2013-03-11 10:20:00,
2013-03-11 12:25:00,75.7,51.7,29.97,ESE,112,0.0,0.0,43,0.00,,---,0.00,VWS V14.01,2013-03-11 10:25:00,
2013-03-11 12:26:00,75.7,51.0,29.94,East,90,0.0,0.0,42,0.00,,---,0.00,VWS V14.01,2013-03-11 10:26:00,
2013-03-11 12:27:00,75.9,51.2,29.94,ESE,112,0.0,0.0,42,0.00,,---,0.00,VWS V14.01,2013-03-11 10:27:00,
2013-03-11 12:29:00,75.9,51.2,29.94,East,90,0.0,0.0,42,0.00,,---,0.00,VWS V14.01,2013-03-11 10:29:00,
2013-03-11 12:33:00,76.8,52.7,29.94,ESE,112,0.0,0.0,43,0.00,,---,0.00,VWS V14.01,2013-03-11 10:33:00,
2013-03-11 12:34:00,77.0,52.8,29.94,ENE,68,0.0,0.0,43,0.00,,---,0.00,VWS V14.01,2013-03-11 10:34:00,
2013-03-11 12:35:00,76.6,51.8,29.94,ESE,112,7.4,7.4,42,0.00,,---,0.00,VWS V14.01,2013-03-11 10:35:00,
2013-03-11 12:38:00,76.1,51.4,29.94,East,90,0.0,7.4,42,0.00,,---,0.00,VWS V14.01,2013-03-11 10:38:00,
2013-03-11 12:41:00,76.1,51.4,29.94,East,90,6.3,6.3,42,0.00,,---,0.00,VWS V14.01,2013-03-11 10:41:00,
2013-03-11 12:43:00,76.5,51.7,29.94,ESE,112,0.0,6.3,42,0.00,,---,0.00,VWS V14.01,2013-03-11 10:43:00,
2013-03-11 12:46:00,76.3,51.5,29.94,ESE,112,0.0,0.0,42,0.00,,---,0.00,VWS V14.01,2013-03-11 10:46:00,
2013-03-11 12:50:00,76.1,50.7,29.94,ESE,112,0.0,0.0,41,0.00,,---,0.00,VWS V14.01,2013-03-11 10:50:00,
2013-03-11 12:51:00,75.9,51.2,29.94,ESE,112,0.0,0.0,42,0.00,,---,0.00,VWS V14.01,2013-03-11 10:51:00,
2013-03-11 12:52:00,76.3,51.5,29.94,East,90,0.0,0.0,42,0.00,,---,0.00,VWS V14.01,2013-03-11 10:52:00,
2013-03-11 12:53:00,76.1,51.4,29.94,ESE,112,0.0,0.0,42,0.00,,---,0.00,VWS V14.01,2013-03-11 10:53:00,
2013-03-11 12:57:00,76.3,51.5,29.97,ESE,112,0.0,0.0,42,0.00,,---,0.00,VWS V14.01,2013-03-11 10:57:00,
2013-03-11 12:58:00,75.9,51.2,29.97,East,90,0.0,0.0,42,0.00,,---,0.00,VWS V14.01,2013-03-11 10:58:00,
2013-03-11 13:00:00,76.1,51.4,29.97,East,90,0.0,0.0,42,0.00,,---,0.00,VWS V14.01,2013-03-11 11:00:00,
2013-03-11 13:03:00,76.1,52.0,29.97,ESE,112,0.0,0.0,43,0.00,,---,0.00,VWS V14.01,2013-03-11 11:03:00,
2013-03-11 13:04:00,76.1,51.4,29.97,ESE,112,0.0,0.0,42,0.00,,---,0.00,VWS V14.01,2013-03-11 11:04:00,
2013-03-11 13:09:00,76.6,51.2,29.97,ESE,112,0.0,0.0,41,0.00,,---,0.00,VWS V14.01,2013-03-11 11:09:00,
2013-03-11 13:10:00,76.5,51.0,29.97,ENE,68,0.0,0.0,41,0.00,,---,0.00,VWS V14.01,2013-03-11 11:10:00,
2013-03-11 13:15:00,76.3,51.5,29.94,ESE,112,0.0,0.0,42,0.00,,---,0.00,VWS V14.01,2013-03-11 11:15:00,
2013-03-11 13:17:00,76.5,51.7,29.94,ESE,112,0.0,0.0,42,0.00,,---,0.00,VWS V14.01,2013-03-11 11:17:00,
2013-03-11 13:19:00,76.1,51.4,29.94,East,90,0.0,0.0,42,0.00,,---,0.00,VWS V14.01,2013-03-11 11:19:00,
2013-03-11 13:20:00,76.1,51.4,29.94,East,90,0.0,0.0,42,0.00,,---,0.00,VWS V14.01,2013-03-11 11:20:00,
2013-03-11 13:22:00,76.3,51.5,29.94,ESE,112,0.0,0.0,42,0.00,,---,0.00,VWS V14.01,2013-03-11 11:22:00,
2013-03-11 13:26:00,76.5,51.7,29.94,East,90,0.0,0.0,42,0.00,,---,0.00,VWS V14.01,2013-03-11 11:26:00,
2013-03-11 13:27:00,76.5,51.7,29.94,ENE,68,0.0,0.0,42,0.00,,---,0.00,VWS V14.01,2013-03-11 11:27:00,
2013-03-11 13:28:00,76.5,52.3,29.94,ESE,112,0.0,0.0,43,0.00,,---,0.00,VWS V14.01,2013-03-11 11:28:00,
2013-03-11 13:32:00,76.5,51.7,29.94,East,90,0.0,0.0,42,0.00,,---,0.00,VWS V14.01,2013-03-11 11:32:00,
2013-03-11 13:36:00,76.3,51.5,29.94,East,90,0.0,0.0,42,0.00,,---,0.00,VWS V14.01,2013-03-11 11:36:00,
2013-03-11 13:37:00,76.3,51.5,29.94,East,90,0.0,0.0,42,0.00,,---,0.00,VWS V14.01,2013-03-11 11:37:00,
2013-03-11 13:42:00,76.6,52.5,29.94,SE,135,0.0,0.0,43,0.00,,---,0.00,VWS V14.01,2013-03-11 11:42:00,
2013-03-11 13:43:00,76.6,51.8,29.94,ESE,112,0.0,0.0,42,0.00,,---,0.00,VWS V14.01,2013-03-11 11:43:00,
2013-03-11 13:44:00,76.6,51.8,29.94,East,90,0.0,0.0,42,0.00,,---,0.00,VWS V14.01,2013-03-11 11:44:00,
2013-03-11 13:47:00,76.3,51.5,29.94,ESE,112,0.0,0.0,42,0.00,,---,0.00,VWS V14.01,2013-03-11 11:47:00,
2013-03-11 13:51:00,76.3,52.2,29.94,East,90,0.0,0.0,43,0.00,,---,0.00,VWS V14.01,2013-03-11 11:51:00,
2013-03-11 13:52:00,76.5,52.3,29.94,ESE,112,0.0,0.0,43,0.00,,---,0.00,VWS V14.01,2013-03-11 11:52:00,
2013-03-11 13:53:00,76.6,52.5,29.94,SE,135,0.0,0.0,43,0.00,,---,0.00,VWS V14.01,2013-03-11 11:53:00,
2013-03-11 13:54:00,76.6,52.5,29.94,ESE,112,0.0,0.0,43,0.00,,---,0.00,VWS V14.01,2013-03-11 11:54:00,
2013-03-11 13:59:00,76.1,52.0,29.94,SSE,158,0.0,0.0,43,0.00,,---,0.00,VWS V14.01,2013-03-11 11:59:00,
2013-03-11 14:00:00,76.3,52.8,29.94,ESE,112,0.0,0.0,44,0.00,,---,0.00,VWS V14.01,2013-03-11 12:00:00,
2013-03-11 14:04:00,75.9,51.8,29.94,East,90,0.0,0.0,43,0.00,,---,0.00,VWS V14.01,2013-03-11 12:04:00,
2013-03-11 14:05:00,76.3,52.2,29.94,ESE,112,0.0,0.0,43,0.00,,---,0.00,VWS V14.01,2013-03-11 12:05:00,
2013-03-11 14:06:00,76.3,52.2,29.94,ESE,112,0.0,0.0,43,0.00,,---,0.00,VWS V14.01,2013-03-11 12:06:00,
2013-03-11 14:08:00,76.5,53.0,29.94,ENE,68,0.0,0.0,44,0.00,,---,0.00,VWS V14.01,2013-03-11 12:08:00,
2013-03-11 14:10:00,76.8,53.3,29.94,ENE,68,0.0,0.0,44,0.00,,---,0.00,VWS V14.01,2013-03-11 12:10:00,
2013-03-11 14:11:00,76.5,52.3,29.91,ENE,68,0.0,0.0,43,0.00,,---,0.00,VWS V14.01,2013-03-11 12:11:00,
2013-03-11 14:12:00,76.5,52.3,29.91,ESE,112,0.0,0.0,43,0.00,,---,0.00,VWS V14.01,2013-03-11 12:12:00,
2013-03-11 14:14:00,76.6,52.5,29.91,ENE,68,0.0,0.0,43,0.00,,---,0.00,VWS V14.01,2013-03-11 12:14:00,
2013-03-11 14:17:00,76.5,52.3,29.91,ESE,112,0.0,0.0,43,0.00,,---,0.00,VWS V14.01,2013-03-11 12:17:00,
2013-03-11 14:19:00,76.8,53.3,29.91,ESE,112,0.0,0.0,44,0.00,,---,0.00,VWS V14.01,2013-03-11 12:19:00,
2013-03-11 14:21:00,76.5,52.3,29.91,ESE,112,2.0,3.4,43,0.00,,---,0.00,VWS V14.01,2013-03-11 12:21:00,
2013-03-11 14:25:00,76.3,52.8,29.91,ESE,112,0.0,3.4,44,0.00,,---,0.00,VWS V14.01,2013-03-11 12:25:00,
2013-03-11 14:28:00,76.5,53.6,29.91,ESE,112,6.0,6.0,45,0.00,,---,0.00,VWS V14.01,2013-03-11 12:28:00,
2013-03-11 14:30:00,76.5,53.0,29.91,ENE,68,0.0,4.3,44,0.00,,---,0.00,VWS V14.01,2013-03-11 12:30:00,
2013-03-11 14:31:00,76.5,53.6,29.91,ENE,68,0.0,2.9,45,0.00,,---,0.00,VWS V14.01,2013-03-11 12:31:00,
2013-03-11 14:33:00,76.3,52.8,29.91,ESE,112,0.0,6.3,44,0.00,,---,0.00,VWS V14.01,2013-03-11 12:33:00,
2013-03-11 14:34:00,76.5,53.0,29.91,East,90,0.0,0.0,44,0.00,,---,0.00,VWS V14.01,2013-03-11 12:34:00,
2013-03-11 14:38:00,75.9,52.5,29.91,East,90,0.0,7.4,44,0.00,,---,0.00,VWS V14.01,2013-03-11 12:38:00,
2013-03-11 14:45:00,76.5,53.6,29.91,ESE,112,0.0,0.0,45,0.00,,---,0.00,VWS V14.01,2013-03-11 12:45:00,
2013-03-11 14:50:00,76.3,53.4,29.91,ENE,68,6.3,6.3,45,0.00,,---,0.00,VWS V14.01,2013-03-11 12:50:00,
2013-03-11 14:52:00,76.1,53.2,29.91,ENE,68,0.0,6.5,45,0.00,,---,0.00,VWS V14.01,2013-03-11 12:52:00,
2013-03-11 14:53:00,75.9,53.1,29.91,ESE,112,4.0,5.6,45,0.00,,---,0.00,VWS V14.01,2013-03-11 12:53:00,
2013-03-11 14:55:00,75.9,53.1,29.91,East,90,2.5,6.0,45,0.00,,---,0.00,VWS V14.01,2013-03-11 12:55:00,
2013-03-11 15:00:00,75.6,53.3,29.91,ESE,112,2.9,7.4,46,0.00,,---,0.00,VWS V14.01,2013-03-11 13:00:00,
2013-03-11 15:01:00,75.7,54.1,29.91,ESE,112,1.3,2.9,47,0.00,,---,0.00,VWS V14.01,2013-03-11 13:01:00,
2013-03-11 15:03:00,75.4,53.8,29.91,East,90,0.0,0.0,47,0.00,,---,0.00,VWS V14.01,2013-03-11 13:03:00,
2013-03-11 15:08:00,75.9,54.3,29.91,ESE,112,0.0,0.0,47,0.00,,---,0.00,VWS V14.01,2013-03-11 13:08:00,
2013-03-11 15:09:00,75.9,54.3,29.91,East,90,0.0,0.0,47,0.00,,---,0.00,VWS V14.01,2013-03-11 13:09:00,
2013-03-11 15:12:00,75.7,54.1,29.91,ESE,112,0.0,0.0,47,0.00,,---,0.00,VWS V14.01,2013-03-11 13:12:00,
2013-03-11 15:14:00,75.6,53.9,29.91,ESE,112,0.0,0.0,47,0.00,,---,0.00,VWS V14.01,2013-03-11 13:14:00,
2013-03-11 15:16:00,75.4,53.2,29.91,East,90,0.0,0.0,46,0.00,,---,0.00,VWS V14.01,2013-03-11 13:16:00,
2013-03-11 15:20:00,75.6,53.9,29.91,East,90,0.0,0.0,47,0.00,,---,0.00,VWS V14.01,2013-03-11 13:20:00,
2013-03-11 15:21:00,75.7,54.7,29.91,ESE,112,0.0,0.0,48,0.00,,---,0.00,VWS V14.01,2013-03-11 13:21:00,
2013-03-11 15:26:00,75.6,53.9,29.91,East,90,0.0,0.0,47,0.00,,---,0.00,VWS V14.01,2013-03-11 13:26:00,
2013-03-11 15:27:00,75.2,53.6,29.91,East,90,0.0,0.0,47,0.00,,---,0.00,VWS V14.01,2013-03-11 13:27:00,
2013-03-11 15:28:00,74.8,53.8,29.91,ESE,112,0.0,0.0,48,0.00,,---,0.00,VWS V14.01,2013-03-11 13:28:00,
2013-03-11 15:29:00,74.8,53.8,29.91,ENE,68,0.0,0.0,48,0.00,,---,0.00,VWS V14.01,2013-03-11 13:29:00,
2013-03-11 15:33:00,75.0,54.0,29.91,ENE,68,0.0,0.0,48,0.00,,---,0.00,VWS V14.01,2013-03-11 13:33:00,
2013-03-11 15:34:00,75.0,54.0,29.91,East,90,0.0,0.0,48,0.00,,---,0.00,VWS V14.01,2013-03-11 13:34:00,
2013-03-11 15:35:00,75.0,54.6,29.91,ESE,112,0.0,0.0,49,0.00,,---,0.00,VWS V14.01,2013-03-11 13:35:00,
2013-03-11 15:38:00,75.0,54.0,29.91,ENE,68,0.0,0.0,48,0.00,,---,0.00,VWS V14.01,2013-03-11 13:38:00,
2013-03-11 15:41:00,74.8,54.4,29.91,East,90,0.0,0.0,49,0.00,,---,0.00,VWS V14.01,2013-03-11 13:41:00,
2013-03-11 15:43:00,74.7,54.8,29.91,ESE,112,0.0,0.0,50,0.00,,---,0.00,VWS V14.01,2013-03-11 13:43:00,
2013-03-11 15:44:00,74.5,54.6,29.91,ESE,112,0.0,0.0,50,0.00,,---,0.00,VWS V14.01,2013-03-11 13:44:00,
2013-03-11 15:48:00,74.7,54.8,29.91,ESE,112,0.0,0.0,50,0.00,,---,0.00,VWS V14.01,2013-03-11 13:48:00,
2013-03-11 15:49:00,74.8,55.0,29.91,East,90,0.0,0.0,50,0.00,,---,0.00,VWS V14.01,2013-03-11 13:49:00,
2013-03-11 15:51:00,74.8,54.4,29.91,ENE,68,0.0,0.0,49,0.00,,---,0.00,VWS V14.01,2013-03-11 13:51:00,
2013-03-11 15:52:00,75.0,55.7,29.91,ESE,112,0.0,0.0,51,0.00,,---,0.00,VWS V14.01,2013-03-11 13:52:00,
2013-03-11 15:54:00,75.0,55.1,29.91,East,90,0.0,0.0,50,0.00,,---,0.00,VWS V14.01,2013-03-11 13:54:00,
2013-03-11 15:55:00,74.7,54.8,29.91,ENE,68,0.0,0.0,50,0.00,,---,0.00,VWS V14.01,2013-03-11 13:55:00,
2013-03-11 15:59:00,74.7,55.9,29.91,East,90,0.0,0.0,52,0.00,,---,0.00,VWS V14.01,2013-03-11 13:59:00,
2013-03-11 16:00:00,74.7,55.9,29.91,ESE,112,0.0,0.0,52,0.00,,---,0.00,VWS V14.01,2013-03-11 14:00:00,
2013-03-11 16:02:00,74.8,56.0,29.91,East,90,0.0,0.0,52,0.00,,---,0.00,VWS V14.01,2013-03-11 14:02:00,
2013-03-11 16:04:00,74.7,55.3,29.91,ESE,112,0.0,0.0,51,0.00,,---,0.00,VWS V14.01,2013-03-11 14:04:00,
2013-03-11 16:06:00,74.7,55.3,29.91,ESE,112,0.0,0.0,51,0.00,,---,0.00,VWS V14.01,2013-03-11 14:06:00,
2013-03-11 16:07:00,74.7,55.9,29.91,East,90,0.0,0.0,52,0.00,,---,0.00,VWS V14.01,2013-03-11 14:07:00,
2013-03-11 16:08:00,74.7,55.9,29.91,East,90,0.0,0.0,52,0.00,,---,0.00,VWS V14.01,2013-03-11 14:08:00,
2013-03-11 16:10:00,74.3,55.6,29.91,East,90,0.0,0.0,52,0.00,,---,0.00,VWS V14.01,2013-03-11 14:10:00,
2013-03-11 16:14:00,74.1,55.9,29.88,East,90,0.0,0.0,53,0.00,,---,0.00,VWS V14.01,2013-03-11 14:14:00,
2013-03-11 16:16:00,73.9,55.2,29.88,ESE,112,0.0,0.0,52,0.00,,---,0.00,VWS V14.01,2013-03-11 14:16:00,
2013-03-11 16:17:00,74.1,55.9,29.88,East,90,0.0,0.0,53,0.00,,---,0.00,VWS V14.01,2013-03-11 14:17:00,
2013-03-11 16:18:00,74.1,55.9,29.88,East,90,0.0,0.0,53,0.00,,---,0.00,VWS V14.01,2013-03-11 14:18:00,
2013-03-11 16:22:00,74.1,55.9,29.88,NE,45,0.0,0.0,53,0.00,,---,0.00,VWS V14.01,2013-03-11 14:22:00,
2013-03-11 16:23:00,73.9,55.8,29.88,ENE,68,0.0,0.0,53,0.00,,---,0.00,VWS V14.01,2013-03-11 14:23:00,
2013-03-11 16:25:00,73.8,55.6,29.88,ESE,112,0.0,0.0,53,0.00,,---,0.00,VWS V14.01,2013-03-11 14:25:00,
2013-03-11 16:27:00,73.6,55.4,29.88,East,90,0.0,0.0,53,0.00,,---,0.00,VWS V14.01,2013-03-11 14:27:00,
2013-03-11 16:29:00,73.6,55.9,29.88,ESE,112,0.0,0.0,54,0.00,,---,0.00,VWS V14.01,2013-03-11 14:29:00,
2013-03-11 16:32:00,73.6,56.4,29.88,East,90,0.0,0.0,55,0.00,,---,0.00,VWS V14.01,2013-03-11 14:32:00,
2013-03-11 16:33:00,73.8,56.6,29.88,ESE,112,0.0,0.0,55,0.00,,---,0.00,VWS V14.01,2013-03-11 14:33:00,
2013-03-11 16:35:00,73.6,56.4,29.88,ESE,112,0.0,0.0,55,0.00,,---,0.00,VWS V14.01,2013-03-11 14:35:00,
2013-03-11 16:36:00,73.6,56.4,29.88,East,90,0.0,0.0,55,0.00,,---,0.00,VWS V14.01,2013-03-11 14:36:00,
2013-03-11 16:38:00,73.6,56.9,29.88,East,90,0.0,0.0,56,0.00,,---,0.00,VWS V14.01,2013-03-11 14:38:00,
2013-03-11 16:40:00,73.4,56.8,29.88,East,90,0.0,0.0,56,0.00,,---,0.00,VWS V14.01,2013-03-11 14:40:00,
2013-03-11 16:42:00,73.6,56.9,29.88,East,90,0.0,0.0,56,0.00,,---,0.00,VWS V14.01,2013-03-11 14:42:00,
2013-03-11 16:45:00,73.4,56.8,29.88,East,90,0.0,0.0,56,0.00,,---,0.00,VWS V14.01,2013-03-11 14:45:00,
2013-03-11 16:47:00,73.2,57.1,29.88,ESE,112,0.0,0.0,57,0.00,,---,0.00,VWS V14.01,2013-03-11 14:47:00,
2013-03-11 16:48:00,73.2,57.1,29.88,ENE,68,0.0,0.0,57,0.00,,---,0.00,VWS V14.01,2013-03-11 14:48:00,
2013-03-11 16:49:00,73.0,56.9,29.88,East,90,0.0,0.0,57,0.00,,---,0.00,VWS V14.01,2013-03-11 14:49:00,
2013-03-11 16:51:00,73.0,56.9,29.88,ENE,68,0.0,0.0,57,0.00,,---,0.00,VWS V14.01,2013-03-11 14:51:00,
2013-03-11 16:53:00,72.9,57.2,29.88,ESE,112,0.0,0.0,58,0.00,,---,0.00,VWS V14.01,2013-03-11 14:53:00,
2013-03-11 16:54:00,72.9,57.2,29.88,East,90,0.0,0.0,58,0.00,,---,0.00,VWS V14.01,2013-03-11 14:54:00,
2013-03-11 16:56:00,72.7,57.5,29.88,ESE,112,0.0,0.0,59,0.00,,---,0.00,VWS V14.01,2013-03-11 14:56:00,
2013-03-11 16:58:00,72.9,58.2,29.88,ESE,112,0.0,0.0,60,0.00,,---,0.00,VWS V14.01,2013-03-11 14:58:00,
2013-03-11 17:01:00,72.9,57.7,29.88,ESE,112,0.0,0.0,59,0.00,,---,0.00,VWS V14.01,2013-03-11 15:01:00,
2013-03-11 17:02:00,72.9,57.7,29.88,ESE,112,0.0,0.0,59,0.00,,---,0.00,VWS V14.01,2013-03-11 15:02:00,
2013-03-11 17:04:00,72.9,57.7,29.88,SSE,158,0.0,0.0,59,0.00,,---,0.00,VWS V14.01,2013-03-11 15:04:00,
2013-03-11 17:05:00,72.9,57.7,29.88,ESE,112,0.0,0.0,59,0.00,,---,0.00,VWS V14.01,2013-03-11 15:05:00,
2013-03-11 17:08:00,72.7,57.5,29.88,ESE,112,0.0,0.0,59,0.00,,---,0.00,VWS V14.01,2013-03-11 15:08:00,
2013-03-11 17:09:00,72.9,57.7,29.88,ENE,68,5.4,5.4,59,0.00,,---,0.00,VWS V14.01,2013-03-11 15:09:00,
2013-03-11 17:13:00,72.5,57.4,29.88,ENE,68,4.3,4.3,59,0.00,,---,0.00,VWS V14.01,2013-03-11 15:13:00,
2013-03-11 17:16:00,72.7,58.0,29.88,East,90,0.0,2.9,60,0.00,,---,0.00,VWS V14.01,2013-03-11 15:16:00,
2013-03-11 17:19:00,72.5,57.8,29.88,East,90,0.0,0.0,60,0.00,,---,0.00,VWS V14.01,2013-03-11 15:19:00,
2013-03-11 17:21:00,72.5,58.3,29.88,East,90,0.0,0.0,61,0.00,,---,0.00,VWS V14.01,2013-03-11 15:21:00,
2013-03-11 17:25:00,72.5,58.3,29.88,East,90,0.0,0.0,61,0.00,,---,0.00,VWS V14.01,2013-03-11 15:25:00,
2013-03-11 17:26:00,72.5,58.3,29.88,ENE,68,0.0,0.0,61,0.00,,---,0.00,VWS V14.01,2013-03-11 15:26:00,
2013-03-11 17:30:00,72.3,58.6,29.88,ENE,68,0.0,1.1,62,0.00,,---,0.00,VWS V14.01,2013-03-11 15:30:00,
2013-03-11 17:31:00,72.3,58.6,29.88,East,90,0.0,0.0,62,0.00,,---,0.00,VWS V14.01,2013-03-11 15:31:00,
2013-03-11 17:35:00,72.1,58.0,29.88,ESE,112,0.0,0.0,61,0.00,,---,0.00,VWS V14.01,2013-03-11 15:35:00,
2013-03-11 17:37:00,72.3,58.6,29.88,East,90,0.0,0.0,62,0.00,,---,0.00,VWS V14.01,2013-03-11 15:37:00,
2013-03-11 17:40:00,72.1,58.4,29.88,ENE,68,0.0,0.0,62,0.00,,---,0.00,VWS V14.01,2013-03-11 15:40:00,
2013-03-11 17:41:00,72.3,59.0,29.88,ENE,68,0.0,0.0,63,0.00,,---,0.00,VWS V14.01,2013-03-11 15:41:00,
2013-03-11 17:45:00,72.3,59.5,29.88,ESE,112,0.0,0.0,64,0.00,,---,0.00,VWS V14.01,2013-03-11 15:45:00,
2013-03-11 17:49:00,72.3,59.5,29.88,East,90,0.0,0.0,64,0.00,,---,0.00,VWS V14.01,2013-03-11 15:49:00,
2013-03-11 17:50:00,72.1,59.3,29.88,ESE,112,0.0,0.0,64,0.00,,---,0.00,VWS V14.01,2013-03-11 15:50:00,
2013-03-11 17:54:00,72.0,59.1,29.88,ESE,112,0.0,0.0,64,0.00,,---,0.00,VWS V14.01,2013-03-11 15:54:00,
2013-03-11 17:55:00,72.0,59.1,29.88,East,90,0.0,0.0,64,0.00,,---,0.00,VWS V14.01,2013-03-11 15:55:00,
2013-03-11 17:56:00,72.0,59.6,29.88,East,90,0.0,0.0,65,0.00,,---,0.00,VWS V14.01,2013-03-11 15:56:00,
2013-03-11 18:03:00,71.2,60.6,29.88,ENE,68,0.0,0.0,69,0.00,,---,0.00,VWS V14.01,2013-03-11 16:03:00,
2013-03-11 18:04:00,71.1,60.8,29.88,ESE,112,7.8,7.8,70,0.00,,---,0.00,VWS V14.01,2013-03-11 16:04:00,
2013-03-11 18:09:00,70.7,61.6,29.88,ESE,112,3.4,5.8,73,0.00,,---,0.00,VWS V14.01,2013-03-11 16:09:00,
2013-03-11 18:11:00,70.7,62.4,29.88,ESE,112,4.5,5.6,75,0.00,,---,0.00,VWS V14.01,2013-03-11 16:11:00,
2013-03-11 18:13:00,70.5,62.6,29.88,ESE,112,0.0,0.0,76,0.00,,---,0.00,VWS V14.01,2013-03-11 16:13:00,
2013-03-11 18:17:00,70.5,63.3,29.88,ESE,112,0.0,0.0,78,0.00,,---,0.00,VWS V14.01,2013-03-11 16:17:00,
2013-03-11 18:19:00,70.3,63.9,29.88,SSE,158,7.2,7.2,80,0.00,,---,0.00,VWS V14.01,2013-03-11 16:19:00,
2013-03-11 18:22:00,70.3,63.9,29.88,East,90,5.8,5.8,80,0.00,,---,0.00,VWS V14.01,2013-03-11 16:22:00,
2013-03-11 18:24:00,70.3,64.2,29.88,SE,135,5.6,6.0,81,0.00,,---,0.00,VWS V14.01,2013-03-11 16:24:00,
2013-03-11 18:27:00,70.3,64.2,29.88,ENE,68,0.0,4.3,81,0.00,,---,0.00,VWS V14.01,2013-03-11 16:27:00,
2013-03-11 18:32:00,70.2,64.4,29.88,ESE,112,5.4,6.3,82,0.00,,---,0.00,VWS V14.01,2013-03-11 16:32:00,
2013-03-11 18:33:00,70.2,64.4,29.88,ESE,112,8.5,8.5,82,0.00,,---,0.00,VWS V14.01,2013-03-11 16:33:00,
2013-03-11 18:35:00,70.2,64.4,29.88,ESE,112,0.0,0.0,82,0.00,,---,0.00,VWS V14.01,2013-03-11 16:35:00,
2013-03-11 18:42:00,70.0,64.6,29.88,ESE,112,7.6,7.6,83,0.00,,---,0.00,VWS V14.01,2013-03-11 16:42:00,
2013-03-11 18:47:00,69.8,64.4,29.88,East,90,6.3,11.0,83,0.00,,---,0.00,VWS V14.01,2013-03-11 16:47:00,
2013-03-11 18:49:00,69.8,64.8,29.88,East,90,6.5,7.6,84,0.00,,---,0.00,VWS V14.01,2013-03-11 16:49:00,
2013-03-11 18:50:00,69.8,64.8,29.88,ESE,112,0.0,8.7,84,0.00,,---,0.00,VWS V14.01,2013-03-11 16:50:00,
2013-03-11 18:54:00,69.8,64.8,29.88,ESE,112,7.6,7.6,84,0.00,,---,0.00,VWS V14.01,2013-03-11 16:54:00,
2013-03-11 18:56:00,69.6,64.6,29.88,ENE,68,0.0,8.1,84,0.00,,---,0.00,VWS V14.01,2013-03-11 16:56:00,
2013-03-11 18:58:00,69.6,64.9,29.88,East,90,4.5,7.2,85,0.00,,---,0.00,VWS V14.01,2013-03-11 16:58:00,
2013-03-11 19:04:00,69.6,64.9,29.88,ESE,112,7.8,7.8,85,0.00,,---,0.00,VWS V14.01,2013-03-11 17:04:00,
2013-03-11 19:08:00,69.6,65.2,29.88,ESE,112,0.0,8.7,86,0.00,,---,0.00,VWS V14.01,2013-03-11 17:08:00,
2013-03-11 19:13:00,69.6,64.9,29.88,ESE,112,0.0,6.9,85,0.00,,---,0.00,VWS V14.01,2013-03-11 17:13:00,
2013-03-11 19:16:00,69.6,65.2,29.88,ESE,112,0.0,6.9,86,0.00,,---,0.00,VWS V14.01,2013-03-11 17:16:00,
2013-03-11 19:17:00,69.6,65.2,29.88,ESE,112,0.0,0.0,86,0.00,,---,0.00,VWS V14.01,2013-03-11 17:17:00,
2013-03-11 19:18:00,69.6,65.2,29.88,ENE,68,7.8,7.8,86,0.00,,---,0.00,VWS V14.01,2013-03-11 17:18:00,
2013-03-11 19:19:00,69.6,65.2,29.88,ESE,112,7.4,8.5,86,0.00,,---,0.00,VWS V14.01,2013-03-11 17:19:00,
2013-03-11 19:20:00,69.6,65.2,29.88,ESE,112,5.4,8.1,86,0.00,,---,0.00,VWS V14.01,2013-03-11 17:20:00,
2013-03-11 19:21:00,69.4,65.1,29.88,ESE,112,0.0,8.5,86,0.00,,---,0.00,VWS V14.01,2013-03-11 17:21:00,
2013-03-11 19:22:00,69.4,65.4,29.88,ESE,112,0.0,0.0,87,0.00,,---,0.00,VWS V14.01,2013-03-11 17:22:00,
2013-03-11 19:23:00,69.4,65.4,29.88,East,90,0.0,0.0,87,0.00,,---,0.00,VWS V14.01,2013-03-11 17:23:00,
2013-03-11 19:24:00,69.4,65.1,29.88,East,90,0.0,0.0,86,0.00,,---,0.00,VWS V14.01,2013-03-11 17:24:00,
2013-03-11 19:25:00,69.4,65.4,29.88,ESE,112,0.0,0.0,87,0.00,,---,0.00,VWS V14.01,2013-03-11 17:25:00,
2013-03-11 19:26:00,69.4,65.4,29.88,ESE,112,0.0,0.0,87,0.00,,---,0.00,VWS V14.01,2013-03-11 17:26:00,
2013-03-11 19:27:00,69.4,65.4,29.88,ESE,112,0.0,0.0,87,0.00,,---,0.00,VWS V14.01,2013-03-11 17:27:00,
2013-03-11 19:28:00,69.4,65.4,29.88,East,90,0.0,0.0,87,0.00,,---,0.00,VWS V14.01,2013-03-11 17:28:00,
2013-03-11 19:29:00,69.4,65.4,29.88,ESE,112,0.0,0.0,87,0.00,,---,0.00,VWS V14.01,2013-03-11 17:29:00,
2013-03-11 19:30:00,69.4,65.4,29.88,East,90,0.0,0.0,87,0.00,,---,0.00,VWS V14.01,2013-03-11 17:30:00,
2013-03-11 19:31:00,69.4,65.4,29.88,ESE,112,0.0,0.0,87,0.00,,---,0.00,VWS V14.01,2013-03-11 17:31:00,
2013-03-11 19:32:00,69.4,65.4,29.88,ESE,112,0.0,0.0,87,0.00,,---,0.00,VWS V14.01,2013-03-11 17:32:00,
2013-03-11 19:33:00,69.4,65.4,29.88,East,90,0.0,0.0,87,0.00,,---,0.00,VWS V14.01,2013-03-11 17:33:00,
2013-03-11 19:34:00,69.4,65.4,29.88,ESE,112,0.0,0.0,87,0.00,,---,0.00,VWS V14.01,2013-03-11 17:34:00,
2013-03-11 19:35:00,69.4,65.4,29.88,ESE,112,0.0,0.0,87,0.00,,---,0.00,VWS V14.01,2013-03-11 17:35:00,
2013-03-11 19:36:00,69.4,65.4,29.88,NNE,22,0.0,0.0,87,0.00,,---,0.00,VWS V14.01,2013-03-11 17:36:00,
2013-03-11 19:37:00,69.3,65.2,29.88,ESE,112,0.0,0.0,87,0.00,,---,0.00,VWS V14.01,2013-03-11 17:37:00,
2013-03-11 19:38:00,69.3,65.2,29.88,ESE,112,0.0,0.0,87,0.00,,---,0.00,VWS V14.01,2013-03-11 17:38:00,
2013-03-11 19:39:00,69.3,65.2,29.88,East,90,0.0,0.0,87,0.00,,---,0.00,VWS V14.01,2013-03-11 17:39:00,
2013-03-11 19:40:00,69.3,65.2,29.88,North,0,0.0,0.0,87,0.00,,---,0.00,VWS V14.01,2013-03-11 17:40:00,
2013-03-11 19:41:00,69.3,65.2,29.88,ESE,112,0.0,0.0,87,0.00,,---,0.00,VWS V14.01,2013-03-11 17:41:00,
2013-03-11 19:42:00,69.3,65.2,29.88,ESE,112,0.0,0.0,87,0.00,,---,0.00,VWS V14.01,2013-03-11 17:42:00,
2013-03-11 19:43:00,69.3,65.2,29.88,ESE,112,0.0,0.0,87,0.00,,---,0.00,VWS V14.01,2013-03-11 17:43:00,
2013-03-11 19:44:00,69.4,65.4,29.88,ESE,112,0.0,0.0,87,0.00,,---,0.00,VWS V14.01,2013-03-11 17:44:00,
2013-03-11 19:45:00,69.3,65.2,29.88,East,90,0.0,0.0,87,0.00,,---,0.00,VWS V14.01,2013-03-11 17:45:00,
2013-03-11 19:46:00,69.3,65.2,29.88,ESE,112,0.0,0.0,87,0.00,,---,0.00,VWS V14.01,2013-03-11 17:46:00,
2013-03-11 19:47:00,69.3,65.2,29.88,ESE,112,0.0,0.0,87,0.00,,---,0.00,VWS V14.01,2013-03-11 17:47:00,
2013-03-11 19:48:00,69.3,65.2,29.88,ENE,68,0.0,0.0,87,0.00,,---,0.00,VWS V14.01,2013-03-11 17:48:00,
2013-03-11 19:49:00,69.3,65.2,29.88,ESE,112,0.0,0.0,87,0.00,,---,0.00,VWS V14.01,2013-03-11 17:49:00,
2013-03-11 19:50:00,69.4,65.7,29.88,ESE,112,0.0,0.0,88,0.00,,---,0.00,VWS V14.01,2013-03-11 17:50:00,
2013-03-11 19:51:00,69.4,65.7,29.88,ESE,112,0.0,0.0,88,0.00,,---,0.00,VWS V14.01,2013-03-11 17:51:00,
2013-03-11 19:52:00,69.4,65.7,29.88,ESE,112,0.0,0.0,88,0.00,,---,0.00,VWS V14.01,2013-03-11 17:52:00,
2013-03-11 19:53:00,69.3,65.6,29.88,ENE,68,0.0,0.0,88,0.00,,---,0.00,VWS V14.01,2013-03-11 17:53:00,
2013-03-11 19:54:00,69.3,65.6,29.88,SSE,158,0.0,0.0,88,0.00,,---,0.00,VWS V14.01,2013-03-11 17:54:00,
2013-03-11 19:55:00,69.3,65.6,29.88,East,90,0.0,0.0,88,0.00,,---,0.00,VWS V14.01,2013-03-11 17:55:00,
2013-03-11 19:56:00,69.3,65.6,29.88,ESE,112,0.0,0.0,88,0.00,,---,0.00,VWS V14.01,2013-03-11 17:56:00,
2013-03-11 19:57:00,69.3,65.9,29.88,ESE,112,0.0,0.0,89,0.00,,---,0.00,VWS V14.01,2013-03-11 17:57:00,
2013-03-11 19:58:00,69.3,65.9,29.88,East,90,0.0,0.0,89,0.00,,---,0.00,VWS V14.01,2013-03-11 17:58:00,
2013-03-11 19:59:00,69.3,65.9,29.88,ENE,68,0.0,0.0,89,0.00,,---,0.00,VWS V14.01,2013-03-11 17:59:00,
2013-03-11 20:00:00,69.3,65.9,29.88,ESE,112,0.0,0.0,89,0.00,,---,0.00,VWS V14.01,2013-03-11 18:00:00,
2013-03-11 20:01:00,69.3,65.9,29.88,East,90,0.0,0.0,89,0.00,,---,0.00,VWS V14.01,2013-03-11 18:01:00,
2013-03-11 20:02:00,69.3,65.9,29.88,ESE,112,0.0,0.0,89,0.00,,---,0.00,VWS V14.01,2013-03-11 18:02:00,
2013-03-11 20:03:00,69.3,65.9,29.88,East,90,0.0,0.0,89,0.00,,---,0.00,VWS V14.01,2013-03-11 18:03:00,
2013-03-11 20:04:00,69.3,65.9,29.88,ESE,112,0.0,0.0,89,0.00,,---,0.00,VWS V14.01,2013-03-11 18:04:00,
2013-03-11 20:05:00,69.3,66.2,29.88,ESE,112,0.0,0.0,90,0.00,,---,0.00,VWS V14.01,2013-03-11 18:05:00,
2013-03-11 20:06:00,69.3,66.2,29.88,East,90,0.0,0.0,90,0.00,,---,0.00,VWS V14.01,2013-03-11 18:06:00,
2013-03-11 20:07:00,69.3,66.2,29.88,ESE,112,0.0,0.0,90,0.00,,---,0.00,VWS V14.01,2013-03-11 18:07:00,
2013-03-11 20:08:00,69.3,66.2,29.88,SE,135,0.0,0.0,90,0.00,,---,0.00,VWS V14.01,2013-03-11 18:08:00,
2013-03-11 20:09:00,69.3,66.2,29.88,ESE,112,0.0,0.0,90,0.00,,---,0.00,VWS V14.01,2013-03-11 18:09:00,
2013-03-11 20:10:00,69.3,66.2,29.88,ENE,68,0.0,0.0,90,0.00,,---,0.00,VWS V14.01,2013-03-11 18:10:00,
2013-03-11 20:11:00,69.3,66.2,29.88,East,90,0.0,0.0,90,0.00,,---,0.00,VWS V14.01,2013-03-11 18:11:00,
2013-03-11 20:12:00,69.3,66.2,29.88,ENE,68,0.0,0.0,90,0.00,,---,0.00,VWS V14.01,2013-03-11 18:12:00,
2013-03-11 20:13:00,69.3,66.2,29.88,ESE,112,0.0,0.0,90,0.00,,---,0.00,VWS V14.01,2013-03-11 18:13:00,
2013-03-11 20:14:00,69.3,66.2,29.88,ESE,112,0.0,0.0,90,0.00,,---,0.00,VWS V14.01,2013-03-11 18:14:00,
2013-03-11 20:15:00,69.3,66.2,29.88,East,90,0.0,0.0,90,0.00,,---,0.00,VWS V14.01,2013-03-11 18:15:00,
2013-03-11 20:16:00,69.3,66.2,29.88,ENE,68,0.0,0.0,90,0.00,,---,0.00,VWS V14.01,2013-03-11 18:16:00,
2013-03-11 20:17:00,69.3,66.2,29.88,ESE,112,0.0,0.0,90,0.00,,---,0.00,VWS V14.01,2013-03-11 18:17:00,
2013-03-11 20:18:00,69.3,66.2,29.88,ENE,68,0.0,0.0,90,0.00,,---,0.00,VWS V14.01,2013-03-11 18:18:00,
2013-03-11 20:19:00,69.3,66.2,29.88,ENE,68,0.0,0.0,90,0.00,,---,0.00,VWS V14.01,2013-03-11 18:19:00,
2013-03-11 20:20:00,69.3,66.2,29.88,East,90,0.0,0.0,90,0.00,,---,0.00,VWS V14.01,2013-03-11 18:20:00,
2013-03-11 20:21:00,69.3,66.5,29.88,ESE,112,0.0,0.0,91,0.00,,---,0.00,VWS V14.01,2013-03-11 18:21:00,
2013-03-11 20:22:00,69.3,66.5,29.88,ENE,68,0.0,0.0,91,0.00,,---,0.00,VWS V14.01,2013-03-11 18:22:00,
2013-03-11 20:23:00,69.3,66.5,29.88,East,90,0.0,0.0,91,0.00,,---,0.00,VWS V14.01,2013-03-11 18:23:00,
2013-03-11 20:24:00,69.3,66.5,29.88,ESE,112,0.0,0.0,91,0.00,,---,0.00,VWS V14.01,2013-03-11 18:24:00,
2013-03-11 20:25:00,69.3,66.5,29.88,ESE,112,0.0,0.0,91,0.00,,---,0.00,VWS V14.01,2013-03-11 18:25:00,
2013-03-11 20:26:00,69.3,66.5,29.88,ESE,112,0.0,0.0,91,0.00,,---,0.00,VWS V14.01,2013-03-11 18:26:00,
2013-03-11 20:27:00,69.3,66.5,29.88,ESE,112,0.0,0.0,91,0.00,,---,0.00,VWS V14.01,2013-03-11 18:27:00,
2013-03-11 20:28:00,69.3,66.5,29.88,ESE,112,0.0,0.0,91,0.00,,---,0.00,VWS V14.01,2013-03-11 18:28:00,
2013-03-11 20:29:00,69.1,66.3,29.88,East,90,0.0,0.0,91,0.00,,---,0.00,VWS V14.01,2013-03-11 18:29:00,
2013-03-11 20:30:00,69.1,66.3,29.88,ESE,112,0.0,0.0,91,0.00,,---,0.00,VWS V14.01,2013-03-11 18:30:00,
2013-03-11 20:31:00,69.1,66.3,29.88,ESE,112,0.0,0.0,91,0.00,,---,0.00,VWS V14.01,2013-03-11 18:31:00,
2013-03-11 20:32:00,69.1,66.3,29.88,ESE,112,0.0,0.0,91,0.00,,---,0.00,VWS V14.01,2013-03-11 18:32:00,
2013-03-11 20:33:00,69.3,66.5,29.88,East,90,0.0,0.0,91,0.00,,---,0.00,VWS V14.01,2013-03-11 18:33:00,
2013-03-11 20:34:00,69.3,66.5,29.88,ESE,112,0.0,0.0,91,0.00,,---,0.00,VWS V14.01,2013-03-11 18:34:00,
2013-03-11 20:35:00,69.3,66.5,29.88,ESE,112,0.0,0.0,91,0.00,,---,0.00,VWS V14.01,2013-03-11 18:35:00,
2013-03-11 20:36:00,69.1,66.3,29.88,ENE,68,0.0,0.0,91,0.00,,---,0.00,VWS V14.01,2013-03-11 18:36:00,
2013-03-11 20:37:00,69.1,66.3,29.88,East,90,0.0,0.0,91,0.00,,---,0.00,VWS V14.01,2013-03-11 18:37:00,
2013-03-11 20:38:00,69.1,66.3,29.88,ENE,68,0.0,0.0,91,0.00,,---,0.00,VWS V14.01,2013-03-11 18:38:00,
2013-03-11 20:39:00,69.1,66.3,29.88,ESE,112,0.0,0.0,91,0.00,,---,0.00,VWS V14.01,2013-03-11 18:39:00,
2013-03-11 20:40:00,69.1,66.3,29.88,SE,135,0.0,0.0,91,0.00,,---,0.00,VWS V14.01,2013-03-11 18:40:00,
2013-03-11 20:41:00,69.1,66.3,29.88,ESE,112,0.0,0.0,91,0.00,,---,0.00,VWS V14.01,2013-03-11 18:41:00,
2013-03-11 20:42:00,69.1,66.3,29.88,ENE,68,0.0,0.0,91,0.00,,---,0.00,VWS V14.01,2013-03-11 18:42:00,
2013-03-11 20:43:00,69.1,66.3,29.88,East,90,0.0,0.0,91,0.00,,---,0.00,VWS V14.01,2013-03-11 18:43:00,
2013-03-11 20:44:00,69.1,66.3,29.88,ESE,112,0.0,0.0,91,0.00,,---,0.00,VWS V14.01,2013-03-11 18:44:00,
2013-03-11 20:45:00,69.1,66.3,29.88,East,90,0.0,0.0,91,0.00,,---,0.00,VWS V14.01,2013-03-11 18:45:00,
2013-03-11 20:46:00,69.1,66.3,29.88,ENE,68,0.0,0.0,91,0.00,,---,0.00,VWS V14.01,2013-03-11 18:46:00,
2013-03-11 20:47:00,69.1,66.3,29.88,NNE,22,0.0,0.0,91,0.00,,---,0.00,VWS V14.01,2013-03-11 18:47:00,
2013-03-11 20:48:00,69.1,66.3,29.88,ESE,112,0.0,0.0,91,0.00,,---,0.00,VWS V14.01,2013-03-11 18:48:00,
2013-03-11 20:49:00,69.1,66.3,29.88,ENE,68,0.0,0.0,91,0.00,,---,0.00,VWS V14.01,2013-03-11 18:49:00,
2013-03-11 20:50:00,69.1,66.3,29.88,ENE,68,0.0,0.0,91,0.00,,---,0.00,VWS V14.01,2013-03-11 18:50:00,
2013-03-11 20:51:00,69.1,66.3,29.88,ESE,112,0.0,0.0,91,0.00,,---,0.00,VWS V14.01,2013-03-11 18:51:00,
2013-03-11 20:52:00,69.1,66.7,29.88,ENE,68,0.0,0.0,92,0.00,,---,0.00,VWS V14.01,2013-03-11 18:52:00,
2013-03-11 20:53:00,69.1,66.7,29.88,East,90,0.0,0.0,92,0.00,,---,0.00,VWS V14.01,2013-03-11 18:53:00,
2013-03-11 20:54:00,69.1,66.7,29.88,East,90,0.0,0.0,92,0.00,,---,0.00,VWS V14.01,2013-03-11 18:54:00,
2013-03-11 20:55:00,69.1,66.7,29.88,ESE,112,0.0,0.0,92,0.00,,---,0.00,VWS V14.01,2013-03-11 18:55:00,
2013-03-11 20:56:00,69.1,66.7,29.88,ESE,112,0.0,0.0,92,0.00,,---,0.00,VWS V14.01,2013-03-11 18:56:00,
2013-03-11 20:57:00,69.1,66.7,29.88,ESE,112,0.0,0.0,92,0.00,,---,0.00,VWS V14.01,2013-03-11 18:57:00,
2013-03-11 20:58:00,69.1,66.7,29.88,East,90,0.0,0.0,92,0.00,,---,0.00,VWS V14.01,2013-03-11 18:58:00,
2013-03-11 20:59:00,69.1,66.7,29.88,ESE,112,0.0,0.0,92,0.00,,---,0.00,VWS V14.01,2013-03-11 18:59:00,
2013-03-11 21:00:00,69.1,66.7,29.88,ESE,112,0.0,0.0,92,0.00,,---,0.00,VWS V14.01,2013-03-11 19:00:00,
2013-03-11 21:01:00,69.1,66.7,29.88,ESE,112,0.0,0.0,92,0.00,,---,0.00,VWS V14.01,2013-03-11 19:01:00,
2013-03-11 21:02:00,69.1,66.7,29.88,ENE,68,0.0,0.0,92,0.00,,---,0.00,VWS V14.01,2013-03-11 19:02:00,
2013-03-11 21:03:00,69.1,66.7,29.88,East,90,0.0,0.0,92,0.00,,---,0.00,VWS V14.01,2013-03-11 19:03:00,
2013-03-11 21:04:00,69.1,66.7,29.88,ESE,112,0.0,0.0,92,0.00,,---,0.00,VWS V14.01,2013-03-11 19:04:00,
2013-03-11 21:05:00,69.1,66.7,29.88,ESE,112,0.0,0.0,92,0.00,,---,0.00,VWS V14.01,2013-03-11 19:05:00,
2013-03-11 21:06:00,69.1,67.0,29.88,East,90,0.0,0.0,93,0.00,,---,0.00,VWS V14.01,2013-03-11 19:06:00,
2013-03-11 21:07:00,69.1,67.0,29.88,ESE,112,0.0,0.0,93,0.00,,---,0.00,VWS V14.01,2013-03-11 19:07:00,
2013-03-11 21:08:00,69.1,67.0,29.88,ESE,112,0.0,0.0,93,0.00,,---,0.00,VWS V14.01,2013-03-11 19:08:00,
2013-03-11 21:09:00,69.1,67.0,29.88,ESE,112,0.0,0.0,93,0.00,,---,0.00,VWS V14.01,2013-03-11 19:09:00,
2013-03-11 21:10:00,69.1,67.0,29.88,ESE,112,0.0,0.0,93,0.00,,---,0.00,VWS V14.01,2013-03-11 19:10:00,
2013-03-11 21:11:00,69.1,67.0,29.88,ESE,112,0.0,0.0,93,0.00,,---,0.00,VWS V14.01,2013-03-11 19:11:00,
2013-03-11 21:12:00,69.1,67.0,29.88,ENE,68,0.0,0.0,93,0.00,,---,0.00,VWS V14.01,2013-03-11 19:12:00,
2013-03-11 21:13:00,69.1,67.0,29.88,ESE,112,0.0,0.0,93,0.00,,---,0.00,VWS V14.01,2013-03-11 19:13:00,
2013-03-11 21:14:00,69.1,67.0,29.88,ESE,112,0.0,0.0,93,0.00,,---,0.00,VWS V14.01,2013-03-11 19:14:00,
2013-03-11 21:15:00,69.1,67.0,29.88,ESE,112,0.0,0.0,93,0.00,,---,0.00,VWS V14.01,2013-03-11 19:15:00,
2013-03-11 21:16:00,69.1,67.0,29.88,ESE,112,0.0,0.0,93,0.00,,---,0.00,VWS V14.01,2013-03-11 19:16:00,
2013-03-11 21:17:00,69.1,67.0,29.88,ESE,112,0.0,0.0,93,0.00,,---,0.00,VWS V14.01,2013-03-11 19:17:00,
2013-03-11 21:18:00,69.1,67.0,29.88,ENE,68,0.0,0.0,93,0.00,,---,0.00,VWS V14.01,2013-03-11 19:18:00,
2013-03-11 21:19:00,69.1,67.0,29.88,ESE,112,0.0,0.0,93,0.00,,---,0.00,VWS V14.01,2013-03-11 19:19:00,
2013-03-11 21:20:00,69.1,67.0,29.88,ESE,112,0.0,0.0,93,0.00,,---,0.00,VWS V14.01,2013-03-11 19:20:00,
2013-03-11 21:21:00,69.1,67.0,29.88,ESE,112,0.0,0.0,93,0.00,,---,0.00,VWS V14.01,2013-03-11 19:21:00,
2013-03-11 21:22:00,69.1,67.0,29.88,SE,135,0.0,0.0,93,0.00,,---,0.00,VWS V14.01,2013-03-11 19:22:00,
2013-03-11 21:23:00,69.1,67.0,29.88,ESE,112,0.0,0.0,93,0.00,,---,0.00,VWS V14.01,2013-03-11 19:23:00,
2013-03-11 21:24:00,69.1,67.0,29.88,ENE,68,0.0,0.0,93,0.00,,---,0.00,VWS V14.01,2013-03-11 19:24:00,
2013-03-11 21:25:00,69.1,67.0,29.88,ESE,112,0.0,0.0,93,0.00,,---,0.00,VWS V14.01,2013-03-11 19:25:00,
2013-03-11 21:26:00,69.1,67.0,29.88,ESE,112,0.0,0.0,93,0.00,,---,0.00,VWS V14.01,2013-03-11 19:26:00,
2013-03-11 21:27:00,69.1,67.0,29.88,ESE,112,0.0,0.0,93,0.00,,---,0.00,VWS V14.01,2013-03-11 19:27:00,
2013-03-11 21:28:00,69.1,67.0,29.88,ESE,112,0.0,0.0,93,0.00,,---,0.00,VWS V14.01,2013-03-11 19:28:00,
2013-03-11 21:29:00,69.1,67.0,29.88,ESE,112,0.0,0.0,93,0.00,,---,0.00,VWS V14.01,2013-03-11 19:29:00,
2013-03-11 21:30:00,69.1,67.3,29.88,ESE,112,0.0,0.0,94,0.00,,---,0.00,VWS V14.01,2013-03-11 19:30:00,
2013-03-11 21:31:00,68.9,67.1,29.88,ENE,68,0.0,0.0,94,0.00,,---,0.00,VWS V14.01,2013-03-11 19:31:00,
2013-03-11 21:32:00,68.9,67.1,29.88,ENE,68,0.0,0.0,94,0.00,,---,0.00,VWS V14.01,2013-03-11 19:32:00,
2013-03-11 21:33:00,68.9,67.1,29.88,ESE,112,0.0,0.0,94,0.00,,---,0.00,VWS V14.01,2013-03-11 19:33:00,
2013-03-11 21:34:00,68.9,67.1,29.88,East,90,0.0,0.0,94,0.00,,---,0.00,VWS V14.01,2013-03-11 19:34:00,
2013-03-11 21:35:00,68.9,67.1,29.88,East,90,0.0,0.0,94,0.00,,---,0.00,VWS V14.01,2013-03-11 19:35:00,
2013-03-11 21:36:00,68.9,67.1,29.88,ENE,68,0.0,0.0,94,0.00,,---,0.00,VWS V14.01,2013-03-11 19:36:00,
2013-03-11 21:37:00,68.9,67.1,29.88,ESE,112,0.0,0.0,94,0.00,,---,0.00,VWS V14.01,2013-03-11 19:37:00,
2013-03-11 21:38:00,68.9,67.1,29.88,ENE,68,0.0,0.0,94,0.00,,---,0.00,VWS V14.01,2013-03-11 19:38:00,
2013-03-11 21:39:00,68.9,67.1,29.88,ESE,112,0.0,0.0,94,0.00,,---,0.00,VWS V14.01,2013-03-11 19:39:00,
2013-03-11 21:40:00,68.9,67.1,29.88,ESE,112,0.0,0.0,94,0.00,,---,0.00,VWS V14.01,2013-03-11 19:40:00,
2013-03-11 21:41:00,68.9,67.1,29.88,ESE,112,0.0,0.0,94,0.00,,---,0.00,VWS V14.01,2013-03-11 19:41:00,
2013-03-11 21:42:00,68.9,67.1,29.88,East,90,0.0,0.0,94,0.00,,---,0.00,VWS V14.01,2013-03-11 19:42:00,
2013-03-11 21:43:00,68.9,67.1,29.88,East,90,0.0,0.0,94,0.00,,---,0.00,VWS V14.01,2013-03-11 19:43:00,
2013-03-11 21:44:00,68.9,67.1,29.88,ESE,112,0.0,0.0,94,0.00,,---,0.00,VWS V14.01,2013-03-11 19:44:00,
2013-03-11 21:45:00,68.9,67.1,29.88,ENE,68,0.0,0.0,94,0.00,,---,0.00,VWS V14.01,2013-03-11 19:45:00,
2013-03-11 21:46:00,68.9,67.1,29.88,ESE,112,0.0,0.0,94,0.00,,---,0.00,VWS V14.01,2013-03-11 19:46:00,
2013-03-11 21:47:00,68.9,67.1,29.88,ESE,112,0.0,0.0,94,0.00,,---,0.00,VWS V14.01,2013-03-11 19:47:00,
2013-03-11 21:48:00,68.9,67.1,29.88,East,90,0.0,0.0,94,0.00,,---,0.00,VWS V14.01,2013-03-11 19:48:00,
2013-03-11 21:49:00,69.1,67.6,29.88,ESE,112,0.0,0.0,95,0.00,,---,0.00,VWS V14.01,2013-03-11 19:49:00,
2013-03-11 21:50:00,68.9,67.4,29.88,SE,135,0.0,0.0,95,0.00,,---,0.00,VWS V14.01,2013-03-11 19:50:00,
2013-03-11 21:51:00,69.1,67.6,29.88,East,90,0.0,0.0,95,0.00,,---,0.00,VWS V14.01,2013-03-11 19:51:00,
2013-03-11 21:52:00,68.9,67.4,29.88,ESE,112,0.0,0.0,95,0.00,,---,0.00,VWS V14.01,2013-03-11 19:52:00,
2013-03-11 21:53:00,68.9,67.4,29.88,East,90,0.0,0.0,95,0.00,,---,0.00,VWS V14.01,2013-03-11 19:53:00,
2013-03-11 21:54:00,68.9,67.4,29.88,ENE,68,0.0,0.0,95,0.00,,---,0.00,VWS V14.01,2013-03-11 19:54:00,
2013-03-11 21:55:00,68.9,67.4,29.88,ENE,68,0.0,0.0,95,0.00,,---,0.00,VWS V14.01,2013-03-11 19:55:00,
2013-03-11 21:56:00,68.9,67.4,29.88,East,90,0.0,0.0,95,0.00,,---,0.00,VWS V14.01,2013-03-11 19:56:00,
2013-03-11 21:57:00,68.9,67.4,29.88,ESE,112,0.0,0.0,95,0.00,,---,0.00,VWS V14.01,2013-03-11 19:57:00,
2013-03-11 21:58:00,68.9,67.4,29.88,ESE,112,0.0,0.0,95,0.00,,---,0.00,VWS V14.01,2013-03-11 19:58:00,
2013-03-11 21:59:00,68.9,67.4,29.88,ESE,112,0.0,0.0,95,0.00,,---,0.00,VWS V14.01,2013-03-11 19:59:00,
2013-03-11 22:00:00,68.9,67.4,29.88,ESE,112,0.0,0.0,95,0.00,,---,0.00,VWS V14.01,2013-03-11 20:00:00,
2013-03-11 22:01:00,68.9,67.4,29.88,ENE,68,0.0,0.0,95,0.00,,---,0.00,VWS V14.01,2013-03-11 20:01:00,
2013-03-11 22:02:00,68.9,67.4,29.88,East,90,0.0,0.0,95,0.00,,---,0.00,VWS V14.01,2013-03-11 20:02:00,
2013-03-11 22:03:00,68.9,67.4,29.88,ESE,112,0.0,0.0,95,0.00,,---,0.00,VWS V14.01,2013-03-11 20:03:00,
2013-03-11 22:04:00,68.9,67.4,29.88,ESE,112,0.0,0.0,95,0.00,,---,0.00,VWS V14.01,2013-03-11 20:04:00,
2013-03-11 22:05:00,68.9,67.4,29.88,ESE,112,0.0,0.0,95,0.00,,---,0.00,VWS V14.01,2013-03-11 20:05:00,
2013-03-11 22:06:00,68.9,67.4,29.88,East,90,0.0,0.0,95,0.00,,---,0.00,VWS V14.01,2013-03-11 20:06:00,
2013-03-11 22:07:00,68.9,67.4,29.88,East,90,0.0,0.0,95,0.00,,---,0.00,VWS V14.01,2013-03-11 20:07:00,
2013-03-11 22:08:00,68.9,67.4,29.88,SSE,158,0.0,0.0,95,0.00,,---,0.00,VWS V14.01,2013-03-11 20:08:00,
2013-03-11 22:09:00,68.9,67.7,29.88,ESE,112,0.0,0.0,96,0.00,,---,0.00,VWS V14.01,2013-03-11 20:09:00,
2013-03-11 22:10:00,68.9,67.7,29.88,ENE,68,0.0,0.0,96,0.00,,---,0.00,VWS V14.01,2013-03-11 20:10:00,
2013-03-11 22:11:00,68.9,67.7,29.88,ESE,112,0.0,0.0,96,0.00,,---,0.00,VWS V14.01,2013-03-11 20:11:00,
2013-03-11 22:12:00,68.9,67.7,29.88,ESE,112,0.0,0.0,96,0.00,,---,0.00,VWS V14.01,2013-03-11 20:12:00,
2013-03-11 22:13:00,68.9,67.7,29.88,ESE,112,0.0,0.0,96,0.00,,---,0.00,VWS V14.01,2013-03-11 20:13:00,
2013-03-11 22:14:00,68.9,67.7,29.88,ENE,68,0.0,0.0,96,0.00,,---,0.00,VWS V14.01,2013-03-11 20:14:00,
2013-03-11 22:15:00,68.9,67.7,29.88,ESE,112,0.0,0.0,96,0.00,,---,0.00,VWS V14.01,2013-03-11 20:15:00,
2013-03-11 22:16:00,68.9,67.7,29.88,East,90,0.0,0.0,96,0.00,,---,0.00,VWS V14.01,2013-03-11 20:16:00,
2013-03-11 22:17:00,68.9,67.7,29.88,ENE,68,0.0,0.0,96,0.00,,---,0.00,VWS V14.01,2013-03-11 20:17:00,
2013-03-11 22:18:00,68.7,67.5,29.88,ESE,112,0.0,0.0,96,0.00,,---,0.00,VWS V14.01,2013-03-11 20:18:00,
2013-03-11 22:19:00,68.7,67.5,29.88,ENE,68,0.0,0.0,96,0.00,,---,0.00,VWS V14.01,2013-03-11 20:19:00,
2013-03-11 22:20:00,68.7,67.5,29.88,East,90,0.0,0.0,96,0.00,,---,0.00,VWS V14.01,2013-03-11 20:20:00,
2013-03-11 22:21:00,68.7,67.5,29.88,East,90,0.0,0.0,96,0.00,,---,0.00,VWS V14.01,2013-03-11 20:21:00,
2013-03-11 22:22:00,68.7,67.5,29.88,ESE,112,0.0,0.0,96,0.00,,---,0.00,VWS V14.01,2013-03-11 20:22:00,
2013-03-11 22:23:00,68.7,67.5,29.88,East,90,0.0,0.0,96,0.00,,---,0.00,VWS V14.01,2013-03-11 20:23:00,
2013-03-11 22:24:00,68.7,67.5,29.88,ESE,112,0.0,0.0,96,0.00,,---,0.00,VWS V14.01,2013-03-11 20:24:00,
2013-03-11 22:25:00,68.7,67.5,29.85,East,90,0.0,0.0,96,0.00,,---,0.00,VWS V14.01,2013-03-11 20:25:00,
2013-03-11 22:26:00,68.7,67.5,29.85,ENE,68,0.0,0.0,96,0.00,,---,0.00,VWS V14.01,2013-03-11 20:26:00,
2013-03-11 22:27:00,68.7,67.5,29.85,ESE,112,0.0,0.0,96,0.00,,---,0.00,VWS V14.01,2013-03-11 20:27:00,
2013-03-11 22:28:00,68.7,67.5,29.85,ESE,112,0.0,0.0,96,0.00,,---,0.00,VWS V14.01,2013-03-11 20:28:00,
2013-03-11 22:29:00,68.7,67.5,29.85,ESE,112,0.0,0.0,96,0.00,,---,0.00,VWS V14.01,2013-03-11 20:29:00,
2013-03-11 22:30:00,68.7,67.5,29.85,ESE,112,0.0,0.0,96,0.00,,---,0.00,VWS V14.01,2013-03-11 20:30:00,
2013-03-11 22:31:00,68.7,67.5,29.85,ESE,112,0.0,0.0,96,0.00,,---,0.00,VWS V14.01,2013-03-11 20:31:00,
2013-03-11 22:32:00,68.7,67.5,29.85,East,90,0.0,0.0,96,0.00,,---,0.00,VWS V14.01,2013-03-11 20:32:00,
2013-03-11 22:33:00,68.7,67.5,29.85,ENE,68,0.0,0.0,96,0.00,,---,0.00,VWS V14.01,2013-03-11 20:33:00,
2013-03-11 22:34:00,68.7,67.5,29.85,NE,45,0.0,0.0,96,0.00,,---,0.00,VWS V14.01,2013-03-11 20:34:00,
2013-03-11 22:35:00,68.7,67.5,29.85,ESE,112,0.0,0.0,96,0.00,,---,0.00,VWS V14.01,2013-03-11 20:35:00,
2013-03-11 22:36:00,68.7,67.5,29.85,ESE,112,0.0,0.0,96,0.00,,---,0.00,VWS V14.01,2013-03-11 20:36:00,
2013-03-11 22:37:00,68.7,67.5,29.85,East,90,0.0,0.0,96,0.00,,---,0.00,VWS V14.01,2013-03-11 20:37:00,
2013-03-11 22:38:00,68.7,67.5,29.85,ENE,68,0.0,0.0,96,0.00,,---,0.00,VWS V14.01,2013-03-11 20:38:00,
2013-03-11 22:39:00,68.7,67.5,29.85,ESE,112,0.0,0.0,96,0.00,,---,0.00,VWS V14.01,2013-03-11 20:39:00,
2013-03-11 22:40:00,68.7,67.5,29.85,ESE,112,0.0,0.0,96,0.00,,---,0.00,VWS V14.01,2013-03-11 20:40:00,
2013-03-11 22:41:00,68.7,67.5,29.85,ENE,68,0.0,0.0,96,0.00,,---,0.00,VWS V14.01,2013-03-11 20:41:00,
2013-03-11 22:42:00,68.7,67.5,29.85,ENE,68,0.0,0.0,96,0.00,,---,0.00,VWS V14.01,2013-03-11 20:42:00,
2013-03-11 22:43:00,68.7,67.5,29.85,ENE,68,0.0,0.0,96,0.00,,---,0.00,VWS V14.01,2013-03-11 20:43:00,
2013-03-11 22:44:00,68.5,67.4,29.85,ESE,112,0.0,0.0,96,0.00,,---,0.00,VWS V14.01,2013-03-11 20:44:00,
2013-03-11 22:45:00,68.5,67.4,29.85,East,90,0.0,0.0,96,0.00,,---,0.00,VWS V14.01,2013-03-11 20:45:00,
2013-03-11 22:46:00,68.5,67.4,29.85,East,90,0.0,0.0,96,0.00,,---,0.00,VWS V14.01,2013-03-11 20:46:00,
2013-03-11 22:47:00,68.5,67.4,29.85,ESE,112,0.0,0.0,96,0.00,,---,0.00,VWS V14.01,2013-03-11 20:47:00,
2013-03-11 22:48:00,68.5,67.4,29.85,ESE,112,0.0,0.0,96,0.00,,---,0.00,VWS V14.01,2013-03-11 20:48:00,
2013-03-11 22:49:00,68.5,67.4,29.85,ESE,112,0.0,0.0,96,0.00,,---,0.00,VWS V14.01,2013-03-11 20:49:00,
2013-03-11 22:50:00,68.5,67.4,29.85,ESE,112,0.0,0.0,96,0.00,,---,0.00,VWS V14.01,2013-03-11 20:50:00,
2013-03-11 22:51:00,68.5,67.4,29.85,ESE,112,0.0,0.0,96,0.00,,---,0.00,VWS V14.01,2013-03-11 20:51:00,
2013-03-11 22:52:00,68.5,67.4,29.85,ESE,112,0.0,0.0,96,0.00,,---,0.00,VWS V14.01,2013-03-11 20:52:00,
2013-03-11 22:53:00,68.7,67.5,29.85,ENE,68,0.0,0.0,96,0.00,,---,0.00,VWS V14.01,2013-03-11 20:53:00,
2013-03-11 22:54:00,68.5,67.4,29.85,East,90,0.0,0.0,96,0.00,,---,0.00,VWS V14.01,2013-03-11 20:54:00,
2013-03-11 22:55:00,68.5,67.4,29.85,ENE,68,0.0,0.0,96,0.00,,---,0.00,VWS V14.01,2013-03-11 20:55:00,
2013-03-11 22:56:00,68.5,67.4,29.85,ENE,68,0.0,0.0,96,0.00,,---,0.00,VWS V14.01,2013-03-11 20:56:00,
2013-03-11 22:57:00,68.5,67.4,29.85,ENE,68,0.0,0.0,96,0.00,,---,0.00,VWS V14.01,2013-03-11 20:57:00,
2013-03-11 22:58:00,68.5,67.4,29.85,ESE,112,0.0,0.0,96,0.00,,---,0.00,VWS V14.01,2013-03-11 20:58:00,
2013-03-11 22:59:00,68.5,67.4,29.85,ESE,112,0.0,0.0,96,0.00,,---,0.00,VWS V14.01,2013-03-11 20:59:00,
2013-03-11 23:00:00,68.5,67.4,29.85,ESE,112,0.0,0.0,96,0.00,,---,0.00,VWS V14.01,2013-03-11 21:00:00,
2013-03-11 23:01:00,68.5,67.4,29.85,ESE,112,0.0,0.0,96,0.00,,---,0.00,VWS V14.01,2013-03-11 21:01:00,
2013-03-11 23:02:00,68.5,67.4,29.85,ENE,68,0.0,0.0,96,0.00,,---,0.00,VWS V14.01,2013-03-11 21:02:00,
2013-03-11 23:03:00,68.5,67.4,29.85,ENE,68,0.0,0.0,96,0.00,,---,0.00,VWS V14.01,2013-03-11 21:03:00,
2013-03-11 23:04:00,68.5,67.4,29.85,East,90,0.0,0.0,96,0.00,,---,0.00,VWS V14.01,2013-03-11 21:04:00,
2013-03-11 23:05:00,68.5,67.4,29.85,ENE,68,0.0,0.0,96,0.00,,---,0.00,VWS V14.01,2013-03-11 21:05:00,
2013-03-11 23:06:00,68.5,67.4,29.85,SE,135,0.0,0.0,96,0.00,,---,0.00,VWS V14.01,2013-03-11 21:06:00,
2013-03-11 23:07:00,68.5,67.4,29.85,ESE,112,0.0,0.0,96,0.00,,---,0.00,VWS V14.01,2013-03-11 21:07:00,
2013-03-11 23:08:00,68.5,67.4,29.85,ESE,112,0.0,0.0,96,0.00,,---,0.00,VWS V14.01,2013-03-11 21:08:00,
2013-03-11 23:09:00,68.5,67.4,29.85,ESE,112,0.0,0.0,96,0.00,,---,0.00,VWS V14.01,2013-03-11 21:09:00,
2013-03-11 23:10:00,68.5,67.4,29.85,ESE,112,0.0,0.0,96,0.00,,---,0.00,VWS V14.01,2013-03-11 21:10:00,
2013-03-11 23:11:00,68.5,67.4,29.85,East,90,0.0,0.0,96,0.00,,---,0.00,VWS V14.01,2013-03-11 21:11:00,
2013-03-11 23:12:00,68.5,67.4,29.85,ENE,68,0.0,0.0,96,0.00,,---,0.00,VWS V14.01,2013-03-11 21:12:00,
2013-03-11 23:13:00,68.5,67.4,29.85,ESE,112,0.0,0.0,96,0.00,,---,0.00,VWS V14.01,2013-03-11 21:13:00,
2013-03-11 23:14:00,68.5,67.4,29.85,ENE,68,0.0,0.0,96,0.00,,---,0.00,VWS V14.01,2013-03-11 21:14:00,
2013-03-11 23:15:00,68.5,67.4,29.85,ESE,112,0.0,0.0,96,0.00,,---,0.00,VWS V14.01,2013-03-11 21:15:00,
2013-03-11 23:16:00,68.5,67.4,29.85,ESE,112,0.0,0.0,96,0.00,,---,0.00,VWS V14.01,2013-03-11 21:16:00,
2013-03-11 23:17:00,68.5,67.4,29.85,ENE,68,0.0,0.0,96,0.00,,---,0.00,VWS V14.01,2013-03-11 21:17:00,
2013-03-11 23:18:00,68.5,67.4,29.85,ESE,112,0.0,0.0,96,0.00,,---,0.00,VWS V14.01,2013-03-11 21:18:00,
2013-03-11 23:19:00,68.5,67.4,29.85,ESE,112,0.0,0.0,96,0.00,,---,0.00,VWS V14.01,2013-03-11 21:19:00,
2013-03-11 23:20:00,68.5,67.4,29.85,ESE,112,0.0,0.0,96,0.00,,---,0.00,VWS V14.01,2013-03-11 21:20:00,
2013-03-11 23:21:00,68.5,67.4,29.85,ENE,68,0.0,0.0,96,0.00,,---,0.00,VWS V14.01,2013-03-11 21:21:00,
2013-03-11 23:22:00,68.4,67.2,29.85,East,90,0.0,0.0,96,0.00,,---,0.00,VWS V14.01,2013-03-11 21:22:00,
2013-03-11 23:23:00,68.4,67.2,29.85,East,90,0.0,0.0,96,0.00,,---,0.00,VWS V14.01,2013-03-11 21:23:00,
2013-03-11 23:24:00,68.5,67.4,29.85,ESE,112,0.0,0.0,96,0.00,,---,0.00,VWS V14.01,2013-03-11 21:24:00,
2013-03-11 23:25:00,68.5,67.4,29.85,East,90,0.0,0.0,96,0.00,,---,0.00,VWS V14.01,2013-03-11 21:25:00,
2013-03-11 23:26:00,68.5,67.4,29.85,East,90,0.0,0.0,96,0.00,,---,0.00,VWS V14.01,2013-03-11 21:26:00,
2013-03-11 23:27:00,68.4,67.2,29.85,ENE,68,0.0,0.0,96,0.00,,---,0.00,VWS V14.01,2013-03-11 21:27:00,
2013-03-11 23:28:00,68.4,67.2,29.85,ESE,112,0.0,0.0,96,0.00,,---,0.00,VWS V14.01,2013-03-11 21:28:00,
2013-03-11 23:29:00,68.4,67.2,29.85,ESE,112,0.0,0.0,96,0.00,,---,0.00,VWS V14.01,2013-03-11 21:29:00,
2013-03-11 23:30:00,68.4,67.2,29.85,ENE,68,0.0,0.0,96,0.00,,---,0.00,VWS V14.01,2013-03-11 21:30:00,
2013-03-11 23:31:00,68.4,67.2,29.85,East,90,0.0,0.0,96,0.00,,---,0.00,VWS V14.01,2013-03-11 21:31:00,
2013-03-11 23:32:00,68.4,67.5,29.85,ENE,68,0.0,0.0,97,0.00,,---,0.00,VWS V14.01,2013-03-11 21:32:00,
2013-03-11 23:33:00,68.4,67.5,29.85,East,90,0.0,0.0,97,0.00,,---,0.00,VWS V14.01,2013-03-11 21:33:00,
2013-03-11 23:34:00,68.4,67.5,29.85,ESE,112,0.0,0.0,97,0.00,,---,0.00,VWS V14.01,2013-03-11 21:34:00,
2013-03-11 23:35:00,68.4,67.5,29.85,ESE,112,0.0,0.0,97,0.00,,---,0.00,VWS V14.01,2013-03-11 21:35:00,
2013-03-11 23:36:00,68.4,67.5,29.85,ENE,68,0.0,0.0,97,0.00,,---,0.00,VWS V14.01,2013-03-11 21:36:00,
2013-03-11 23:37:00,68.4,67.5,29.85,ESE,112,0.0,0.0,97,0.00,,---,0.00,VWS V14.01,2013-03-11 21:37:00,
2013-03-11 23:38:00,68.4,67.5,29.85,ENE,68,0.0,0.0,97,0.00,,---,0.00,VWS V14.01,2013-03-11 21:38:00,
2013-03-11 23:39:00,68.4,67.5,29.85,ENE,68,0.0,0.0,97,0.00,,---,0.00,VWS V14.01,2013-03-11 21:39:00,
2013-03-11 23:40:00,68.4,67.5,29.85,NE,45,0.0,0.0,97,0.00,,---,0.00,VWS V14.01,2013-03-11 21:40:00,
2013-03-11 23:41:00,68.4,67.5,29.85,East,90,0.0,0.0,97,0.00,,---,0.00,VWS V14.01,2013-03-11 21:41:00,
2013-03-11 23:42:00,68.4,67.5,29.85,East,90,0.0,0.0,97,0.00,,---,0.00,VWS V14.01,2013-03-11 21:42:00,
2013-03-11 23:43:00,68.4,67.5,29.85,ENE,68,0.0,0.0,97,0.00,,---,0.00,VWS V14.01,2013-03-11 21:43:00,
2013-03-11 23:44:00,68.4,67.5,29.85,ENE,68,0.0,0.0,97,0.00,,---,0.00,VWS V14.01,2013-03-11 21:44:00,
2013-03-11 23:45:00,68.4,67.5,29.85,ENE,68,0.0,0.0,97,0.00,,---,0.00,VWS V14.01,2013-03-11 21:45:00,
2013-03-11 23:46:00,68.4,67.5,29.85,ENE,68,0.0,0.0,97,0.00,,---,0.00,VWS V14.01,2013-03-11 21:46:00,
2013-03-11 23:47:00,68.4,67.5,29.85,ESE,112,0.0,0.0,97,0.00,,---,0.00,VWS V14.01,2013-03-11 21:47:00,
2013-03-11 23:48:00,68.2,67.3,29.85,SE,135,0.0,0.0,97,0.00,,---,0.00,VWS V14.01,2013-03-11 21:48:00,
2013-03-11 23:49:00,68.2,67.3,29.85,SSE,158,0.0,0.0,97,0.00,,---,0.00,VWS V14.01,2013-03-11 21:49:00,
2013-03-11 23:50:00,68.2,67.3,29.85,ESE,112,0.0,0.0,97,0.00,,---,0.00,VWS V14.01,2013-03-11 21:50:00,
2013-03-11 23:51:00,68.4,67.5,29.85,ESE,112,0.0,0.0,97,0.00,,---,0.00,VWS V14.01,2013-03-11 21:51:00,
2013-03-11 23:52:00,68.4,67.5,29.85,ESE,112,0.0,0.0,97,0.00,,---,0.00,VWS V14.01,2013-03-11 21:52:00,
2013-03-11 23:53:00,68.4,67.5,29.85,ESE,112,0.0,0.0,97,0.00,,---,0.00,VWS V14.01,2013-03-11 21:53:00,
2013-03-11 23:54:00,68.4,67.5,29.85,ESE,112,0.0,0.0,97,0.00,,---,0.00,VWS V14.01,2013-03-11 21:54:00,
2013-03-11 23:55:00,68.4,67.5,29.85,ESE,112,0.0,0.0,97,0.00,,---,0.00,VWS V14.01,2013-03-11 21:55:00,
2013-03-11 23:56:00,68.4,67.5,29.85,East,90,0.0,0.0,97,0.00,,---,0.00,VWS V14.01,2013-03-11 21:56:00,
2013-03-11 23:57:00,68.4,67.5,29.85,East,90,0.0,0.0,97,0.00,,---,0.00,VWS V14.01,2013-03-11 21:57:00,
2013-03-11 23:58:00,68.4,67.5,29.85,East,90,0.0,0.0,97,0.00,,---,0.00,VWS V14.01,2013-03-11 21:58:00,
2013-03-11 23:59:00,68.4,67.5,29.85,ESE,112,0.0,0.0,97,0.00,,---,0.00,VWS V14.01,2013-03-11 21:59:00,